Observation data for Palo Duro Reservoir 1NW on 07/18/2019      Previous  Date  Next       Current Mesonet Observations  Soil Data  Daily Summary Page  Observations in Plain Language
KPD4 180500Z 23013KT 28/17 A2993 RMK A01 T02810167  RH  050%=      5-min Rain = 0
KPD4 180501Z 23014KT 28/17 A2993 RMK A01 T02790166  RH  050%=      5-min Rain = 0
KPD4 180502Z 23011KT 28/17 A2993 RMK A01 T02780166  RH  050%=      5-min Rain = 0
KPD4 180503Z 22011KT 28/17 A2993 RMK A01 T02770165  RH  051%=      5-min Rain = 0
KPD4 180504Z 22012KT 28/16 A2993 RMK A01 T02750163  RH  050%=      5-min Rain = 0
KPD4 180505Z 22011KT 27/16 A2993 RMK A01 T02740158  RH  049%=      5-min Rain = 0
KPD4 180506Z 22010KT 27/16 A2993 RMK A01 T02740159  RH  049%=      5-min Rain = 0
KPD4 180507Z 22011KT 27/16 A2993 RMK A01 T02730159  RH  050%=      5-min Rain = 0
KPD4 180508Z 22012KT 27/16 A2993 RMK A01 T02720157  RH  049%=      5-min Rain = 0
KPD4 180509Z 22011KT 27/16 A2993 RMK A01 T02720157  RH  049%=      5-min Rain = 0
KPD4 180510Z 22011KT 27/16 A2993 RMK A01 T02720156  RH  049%=      5-min Rain = 0
KPD4 180511Z 21011KT 27/16 A2993 RMK A01 T02720156  RH  049%=      5-min Rain = 0
KPD4 180512Z 21011KT 27/16 A2993 RMK A01 T02710156  RH  049%=      5-min Rain = 0
KPD4 180513Z 21011KT 27/16 A2993 RMK A01 T02710156  RH  049%=      5-min Rain = 0
KPD4 180514Z 21011KT 27/16 A2993 RMK A01 T02700155  RH  049%=      5-min Rain = 0
KPD4 180515Z 20010KT 27/16 A2993 RMK A01 T02700155  RH  049%=      5-min Rain = 0
KPD4 180516Z 20011KT 27/15 A2993 RMK A01 T02690154  RH  049%=      5-min Rain = 0
KPD4 180517Z 20011KT 27/15 A2993 RMK A01 T02690154  RH  049%=      5-min Rain = 0
KPD4 180518Z 20012KT 27/15 A2993 RMK A01 T02700154  RH  049%=      5-min Rain = 0
KPD4 180519Z 20012KT 27/16 A2993 RMK A01 T02700155  RH  049%=      5-min Rain = 0
KPD4 180520Z 19011KT 27/16 A2993 RMK A01 T02710155  RH  049%=      5-min Rain = 0
KPD4 180521Z 20011KT 27/16 A2993 RMK A01 T02720155  RH  049%=      5-min Rain = 0
KPD4 180522Z 20010KT 27/16 A2993 RMK A01 T02720155  RH  049%=      5-min Rain = 0
KPD4 180523Z 20012KT 27/16 A2993 RMK A01 T02710155  RH  049%=      5-min Rain = 0
KPD4 180524Z 19012KT 27/16 A2993 RMK A01 T02710155  RH  049%=      5-min Rain = 0
KPD4 180525Z 19010KT 27/16 A2993 RMK A01 T02710155  RH  049%=      5-min Rain = 0
KPD4 180526Z 19010KT 27/16 A2993 RMK A01 T02710155  RH  049%=      5-min Rain = 0
KPD4 180527Z 19012KT 27/16 A2992 RMK A01 T02700155  RH  049%=      5-min Rain = 0
KPD4 180528Z 19012KT 27/16 A2992 RMK A01 T02700155  RH  050%=      5-min Rain = 0
KPD4 180529Z 19011KT 27/16 A2992 RMK A01 T02700155  RH  050%=      5-min Rain = 0
KPD4 180530Z 19011KT 27/16 A2992 RMK A01 T02700156  RH  050%=      5-min Rain = 0
KPD4 180531Z 19010KT 27/16 A2992 RMK A01 T02690157  RH  050%=      5-min Rain = 0
KPD4 180532Z 18010KT 27/16 A2992 RMK A01 T02690157  RH  050%=      5-min Rain = 0
KPD4 180533Z 18010KT 27/16 A2992 RMK A01 T02680158  RH  051%=      5-min Rain = 0
KPD4 180534Z 19010KT 27/16 A2992 RMK A01 T02670158  RH  051%=      5-min Rain = 0
KPD4 180535Z 18010KT 27/16 A2992 RMK A01 T02660158  RH  052%=      5-min Rain = 0
KPD4 180536Z 18009KT 27/16 A2992 RMK A01 T02660159  RH  052%=      5-min Rain = 0
KPD4 180537Z 18009KT 27/16 A2992 RMK A01 T02650159  RH  052%=      5-min Rain = 0
KPD4 180538Z 19009KT 27/16 A2992 RMK A01 T02650159  RH  052%=      5-min Rain = 0
KPD4 180539Z 19009KT 27/16 A2992 RMK A01 T02650159  RH  052%=      5-min Rain = 0
KPD4 180540Z 18009KT 27/16 A2992 RMK A01 T02650159  RH  052%=      5-min Rain = 0
KPD4 180541Z 18009KT 27/16 A2992 RMK A01 T02650159  RH  052%=      5-min Rain = 0
KPD4 180542Z 18009KT 27/16 A2992 RMK A01 T02650160  RH  052%=      5-min Rain = 0
KPD4 180543Z 18010KT 26/16 A2992 RMK A01 T02640160  RH  052%=      5-min Rain = 0
KPD4 180544Z 18010KT 26/16 A2992 RMK A01 T02640160  RH  053%=      5-min Rain = 0
KPD4 180545Z 18010KT 26/16 A2992 RMK A01 T02640160  RH  053%=      5-min Rain = 0
KPD4 180546Z 18011KT 26/16 A2992 RMK A01 T02630160  RH  053%=      5-min Rain = 0
KPD4 180547Z 18010KT 26/16 A2992 RMK A01 T02620159  RH  053%=      5-min Rain = 0
KPD4 180548Z 18010KT 26/16 A2991 RMK A01 T02620159  RH  053%=      5-min Rain = 0
KPD4 180549Z 18011KT 26/16 A2991 RMK A01 T02620160  RH  053%=      5-min Rain = 0
KPD4 180550Z 18011KT 26/16 A2991 RMK A01 T02620160  RH  053%=      5-min Rain = 0
KPD4 180551Z 18010KT 26/16 A2991 RMK A01 T02620160  RH  054%=      5-min Rain = 0
KPD4 180552Z 18010KT 26/16 A2991 RMK A01 T02620160  RH  054%=      5-min Rain = 0
KPD4 180553Z 18010KT 26/16 A2991 RMK A01 T02610161  RH  054%=      5-min Rain = 0
KPD4 180554Z 18010KT 26/16 A2991 RMK A01 T02600161  RH  054%=      5-min Rain = 0
KPD4 180555Z 18010KT 26/16 A2991 RMK A01 T02600161  RH  055%=      5-min Rain = 0
KPD4 180556Z 18009KT 26/16 A2991 RMK A01 T02590161  RH  055%=      5-min Rain = 0
KPD4 180557Z 18010KT 26/16 A2991 RMK A01 T02590161  RH  055%=      5-min Rain = 0
KPD4 180558Z 18010KT 26/16 A2991 RMK A01 T02580161  RH  055%=      5-min Rain = 0
KPD4 180559Z 18010KT 26/16 A2991 RMK A01 T02580162  RH  055%=      5-min Rain = 0
KPD4 180600Z 18010KT 26/16 A2991 RMK A01 T02580162  RH  055%=      5-min Rain = 0
KPD4 180601Z 18010KT 26/16 A2991 RMK A01 T02580163  RH  056%=      5-min Rain = 0
KPD4 180602Z 18009KT 26/16 A2991 RMK A01 T02580163  RH  056%=      5-min Rain = 0
KPD4 180603Z 18011KT 26/16 A2991 RMK A01 T02570163  RH  056%=      5-min Rain = 0
KPD4 180604Z 18010KT 26/16 A2991 RMK A01 T02570163  RH  056%=      5-min Rain = 0
KPD4 180605Z 18010KT 26/16 A2991 RMK A01 T02570163  RH  056%=      5-min Rain = 0
KPD4 180606Z 18009KT 26/16 A2991 RMK A01 T02570164  RH  056%=      5-min Rain = 0
KPD4 180607Z 18009KT 26/16 A2991 RMK A01 T02560164  RH  057%=      5-min Rain = 0
KPD4 180608Z 18009KT 26/17 A2991 RMK A01 T02560165  RH  057%=      5-min Rain = 0
KPD4 180609Z 18009KT 26/17 A2991 RMK A01 T02550165  RH  058%=      5-min Rain = 0
KPD4 180610Z 18009KT 25/17 A2991 RMK A01 T02540165  RH  058%=      5-min Rain = 0
KPD4 180611Z 18010KT 25/17 A2991 RMK A01 T02530165  RH  058%=      5-min Rain = 0
KPD4 180612Z 18009KT 25/17 A2991 RMK A01 T02530165  RH  058%=      5-min Rain = 0
KPD4 180613Z 18009KT 25/17 A2991 RMK A01 T02530165  RH  058%=      5-min Rain = 0
KPD4 180614Z 18010KT 25/17 A2991 RMK A01 T02540166  RH  058%=      5-min Rain = 0
KPD4 180615Z 18010KT 25/17 A2991 RMK A01 T02540166  RH  058%=      5-min Rain = 0
KPD4 180616Z 18010KT 25/17 A2991 RMK A01 T02530166  RH  058%=      5-min Rain = 0
KPD4 180617Z 18011KT 25/17 A2991 RMK A01 T02540166  RH  058%=      5-min Rain = 0
KPD4 180618Z 18010KT 26/17 A2991 RMK A01 T02550166  RH  058%=      5-min Rain = 0
KPD4 180619Z 18010KT 26/17 A2991 RMK A01 T02550166  RH  058%=      5-min Rain = 0
KPD4 180620Z 19010KT 26/17 A2991 RMK A01 T02550166  RH  058%=      5-min Rain = 0
KPD4 180621Z 19010KT 26/17 A2991 RMK A01 T02550166  RH  058%=      5-min Rain = 0
KPD4 180622Z 19010KT 26/17 A2991 RMK A01 T02550166  RH  058%=      5-min Rain = 0
KPD4 180623Z 19010KT 26/17 A2991 RMK A01 T02550167  RH  058%=      5-min Rain = 0
KPD4 180624Z 19010KT 26/17 A2991 RMK A01 T02560167  RH  058%=      5-min Rain = 0
KPD4 180625Z 18011KT 26/17 A2991 RMK A01 T02560166  RH  058%=      5-min Rain = 0
KPD4 180626Z 19010KT 26/17 A2991 RMK A01 T02570167  RH  057%=      5-min Rain = 0
KPD4 180627Z 19011KT 26/17 A2991 RMK A01 T02570166  RH  057%=      5-min Rain = 0
KPD4 180628Z 18009KT 26/17 A2991 RMK A01 T02560166  RH  058%=      5-min Rain = 0
KPD4 180629Z 19011KT 26/17 A2991 RMK A01 T02550166  RH  058%=      5-min Rain = 0
KPD4 180630Z 18012KT 26/17 A299 RMK A01 T02550166  RH  058%=      5-min Rain = 0
KPD4 180631Z 18011KT 26/17 A2991 RMK A01 T02560165  RH  057%=      5-min Rain = 0
KPD4 180632Z 18010KT 26/17 A2991 RMK A01 T02570166  RH  057%=      5-min Rain = 0
KPD4 180633Z 18010KT 26/17 A299 RMK A01 T02570166  RH  057%=      5-min Rain = 0
KPD4 180634Z 18011KT 26/17 A299 RMK A01 T02570165  RH  057%=      5-min Rain = 0
KPD4 180635Z 18010KT 26/17 A299 RMK A01 T02570165  RH  057%=      5-min Rain = 0
KPD4 180636Z 18012KT 26/17 A299 RMK A01 T02570165  RH  057%=      5-min Rain = 0
KPD4 180637Z 19011KT 26/17 A299 RMK A01 T02570165  RH  057%=      5-min Rain = 0
KPD4 180638Z 18012KT 26/17 A299 RMK A01 T02570165  RH  057%=      5-min Rain = 0
KPD4 180639Z 18011KT 26/16 A299 RMK A01 T02580164  RH  056%=      5-min Rain = 0
KPD4 180640Z 18011KT 26/16 A299 RMK A01 T02580164  RH  056%=      5-min Rain = 0
KPD4 180641Z 18012KT 26/17 A299 RMK A01 T02580165  RH  056%=      5-min Rain = 0
KPD4 180642Z 18014KT 26/16 A299 RMK A01 T02580164  RH  056%=      5-min Rain = 0
KPD4 180643Z 18012KT 26/16 A299 RMK A01 T02590163  RH  056%=      5-min Rain = 0
KPD4 180644Z 18012KT 26/16 A299 RMK A01 T02600164  RH  055%=      5-min Rain = 0
KPD4 180645Z 18011KT 26/16 A299 RMK A01 T02590163  RH  055%=      5-min Rain = 0
KPD4 180646Z 18011KT 26/16 A299 RMK A01 T02590164  RH  056%=      5-min Rain = 0
KPD4 180647Z 19012KT 26/16 A299 RMK A01 T02590163  RH  056%=      5-min Rain = 0
KPD4 180648Z 18012KT 26/16 A299 RMK A01 T02590164  RH  056%=      5-min Rain = 0
KPD4 180649Z 19010KT 26/16 A299 RMK A01 T02590164  RH  056%=      5-min Rain = 0
KPD4 180650Z 19012KT 26/16 A299 RMK A01 T02580164  RH  056%=      5-min Rain = 0
KPD4 180651Z 18013KT 26/16 A299 RMK A01 T02580163  RH  056%=      5-min Rain = 0
KPD4 180652Z 18013KT 26/16 A299 RMK A01 T02590163  RH  055%=      5-min Rain = 0
KPD4 180653Z 18012KT 26/16 A299 RMK A01 T02590163  RH  055%=      5-min Rain = 0
KPD4 180654Z 18012KT 26/16 A299 RMK A01 T02590163  RH  055%=      5-min Rain = 0
KPD4 180655Z 18014KT 26/16 A299 RMK A01 T02600163  RH  055%=      5-min Rain = 0
KPD4 180656Z 18012KT 26/16 A299 RMK A01 T02600163  RH  055%=      5-min Rain = 0
KPD4 180657Z 18013KT 26/16 A299 RMK A01 T02600163  RH  055%=      5-min Rain = 0
KPD4 180658Z 18012KT 26/16 A299 RMK A01 T02600163  RH  055%=      5-min Rain = 0
KPD4 180659Z 18013KT 26/16 A299 RMK A01 T02600164  RH  055%=      5-min Rain = 0
KPD4 180700Z 19013KT 26/16 A299 RMK A01 T02590163  RH  055%=      5-min Rain = 0
KPD4 180701Z 19013KT 26/16 A299 RMK A01 T02590163  RH  055%=      5-min Rain = 0
KPD4 180702Z 18014KT 26/16 A299 RMK A01 T02590163  RH  055%=      5-min Rain = 0
KPD4 180703Z 19015KT 26/16 A299 RMK A01 T02600163  RH  055%=      5-min Rain = 0
KPD4 180704Z 19014KT 26/16 A299 RMK A01 T02610163  RH  055%=      5-min Rain = 0
KPD4 180705Z 19014KT 26/16 A299 RMK A01 T02620163  RH  055%=      5-min Rain = 0
KPD4 180706Z 19014KT 26/16 A299 RMK A01 T02610163  RH  055%=      5-min Rain = 0
KPD4 180707Z 19014KT 26/16 A299 RMK A01 T02610163  RH  055%=      5-min Rain = 0
KPD4 180708Z 19016KT 26/16 A299 RMK A01 T02610163  RH  055%=      5-min Rain = 0
KPD4 180709Z 19014KT 26/16 A299 RMK A01 T02620163  RH  054%=      5-min Rain = 0
KPD4 180710Z 19013KT 26/16 A299 RMK A01 T02620163  RH  054%=      5-min Rain = 0
KPD4 180711Z 19013KT 26/16 A299 RMK A01 T02610163  RH  055%=      5-min Rain = 0
KPD4 180712Z 19013KT 26/16 A299 RMK A01 T02610163  RH  055%=      5-min Rain = 0
KPD4 180713Z 19013KT 26/16 A299 RMK A01 T02600163  RH  055%=      5-min Rain = 0
KPD4 180714Z 19012KT 26/16 A299 RMK A01 T02610163  RH  055%=      5-min Rain = 0
KPD4 180715Z 19012KT 26/16 A299 RMK A01 T02600163  RH  055%=      5-min Rain = 0
KPD4 180716Z 19014KT 26/16 A299 RMK A01 T02600163  RH  055%=      5-min Rain = 0
KPD4 180717Z 19012KT 26/16 A299 RMK A01 T02600163  RH  055%=      5-min Rain = 0
KPD4 180718Z 19013KT 26/16 A299 RMK A01 T02600163  RH  055%=      5-min Rain = 0
KPD4 180719Z 19014KT 26/16 A299 RMK A01 T02600163  RH  055%=      5-min Rain = 0
KPD4 180720Z 19014KT 26/16 A299 RMK A01 T02600163  RH  055%=      5-min Rain = 0
KPD4 180721Z 19015KT 26/16 A299 RMK A01 T02600163  RH  055%=      5-min Rain = 0
KPD4 180722Z 19013KT 26/16 A299 RMK A01 T02600163  RH  055%=      5-min Rain = 0
KPD4 180723Z 19013KT 26/16 A299 RMK A01 T02610164  RH  055%=      5-min Rain = 0
KPD4 180724Z 19014KT 26/16 A299 RMK A01 T02600163  RH  055%=      5-min Rain = 0
KPD4 180725Z 19013KT 26/16 A299 RMK A01 T02590163  RH  055%=      5-min Rain = 0
KPD4 180726Z 19015KT 26/16 A299 RMK A01 T02590163  RH  055%=      5-min Rain = 0
KPD4 180727Z 19014KT 26/16 A299 RMK A01 T02600163  RH  055%=      5-min Rain = 0
KPD4 180728Z 19014KT 26/16 A299 RMK A01 T02590163  RH  055%=      5-min Rain = 0
KPD4 180729Z 19014KT 26/16 A299 RMK A01 T02590163  RH  055%=      5-min Rain = 0
KPD4 180730Z 19015KT 26/16 A2989 RMK A01 T02590163  RH  055%=      5-min Rain = 0
KPD4 180731Z 19014KT 26/16 A2989 RMK A01 T02600163  RH  055%=      5-min Rain = 0
KPD4 180732Z 19014KT 26/16 A2989 RMK A01 T02600163  RH  055%=      5-min Rain = 0
KPD4 180733Z 19015KT 26/16 A2989 RMK A01 T02600164  RH  055%=      5-min Rain = 0
KPD4 180734Z 19016KT 26/16 A2989 RMK A01 T02600164  RH  055%=      5-min Rain = 0
KPD4 180735Z 18015KT 26/16 A2989 RMK A01 T02600164  RH  055%=      5-min Rain = 0
KPD4 180736Z 18014KT 26/16 A2989 RMK A01 T02590164  RH  056%=      5-min Rain = 0
KPD4 180737Z 19013KT 26/16 A2989 RMK A01 T02590164  RH  056%=      5-min Rain = 0
KPD4 180738Z 19014KT 26/16 A2989 RMK A01 T02580163  RH  056%=      5-min Rain = 0
KPD4 180739Z 19013KT 26/16 A299 RMK A01 T02580164  RH  056%=      5-min Rain = 0
KPD4 180740Z 19013KT 26/16 A299 RMK A01 T02570164  RH  056%=      5-min Rain = 0
KPD4 180741Z 19013KT 26/16 A299 RMK A01 T02570164  RH  056%=      5-min Rain = 0
KPD4 180742Z 19013KT 26/16 A299 RMK A01 T02570164  RH  056%=      5-min Rain = 0
KPD4 180743Z 19013KT 26/16 A299 RMK A01 T02580164  RH  056%=      5-min Rain = 0
KPD4 180744Z 19013KT 26/16 A299 RMK A01 T02580164  RH  056%=      5-min Rain = 0
KPD4 180745Z 19012KT 26/16 A299 RMK A01 T02580164  RH  056%=      5-min Rain = 0
KPD4 180746Z 19012KT 26/16 A299 RMK A01 T02570164  RH  056%=      5-min Rain = 0
KPD4 180747Z 20011KT 26/16 A299 RMK A01 T02570164  RH  057%=      5-min Rain = 0
KPD4 180748Z 20012KT 26/16 A299 RMK A01 T02560164  RH  057%=      5-min Rain = 0
KPD4 180749Z 19011KT 26/16 A299 RMK A01 T02560164  RH  057%=      5-min Rain = 0
KPD4 180750Z 19013KT 26/16 A299 RMK A01 T02560164  RH  057%=      5-min Rain = 0
KPD4 180751Z 20011KT 26/16 A299 RMK A01 T02550164  RH  057%=      5-min Rain = 0
KPD4 180752Z 20010KT 26/16 A299 RMK A01 T02550164  RH  057%=      5-min Rain = 0
KPD4 180753Z 19012KT 25/16 A299 RMK A01 T02540164  RH  057%=      5-min Rain = 0
KPD4 180754Z 19012KT 25/16 A299 RMK A01 T02540164  RH  058%=      5-min Rain = 0
KPD4 180755Z 19012KT 25/16 A2989 RMK A01 T02540164  RH  058%=      5-min Rain = 0
KPD4 180756Z 19012KT 25/16 A2989 RMK A01 T02540164  RH  057%=      5-min Rain = 0
KPD4 180757Z 19014KT 25/16 A2989 RMK A01 T02540164  RH  057%=      5-min Rain = 0
KPD4 180758Z 20012KT 25/16 A2989 RMK A01 T02540164  RH  057%=      5-min Rain = 0
KPD4 180759Z 19015KT 25/16 A2989 RMK A01 T02540164  RH  057%=      5-min Rain = 0
KPD4 180800Z 19014KT 26/16 A2989 RMK A01 T02550164  RH  057%=      5-min Rain = 0
KPD4 180801Z 19014KT 26/17 A2989 RMK A01 T02560165  RH  057%=      5-min Rain = 0
KPD4 180802Z 19014KT 26/16 A2989 RMK A01 T02550164  RH  057%=      5-min Rain = 0
KPD4 180803Z 19013KT 26/16 A2989 RMK A01 T02550164  RH  057%=      5-min Rain = 0
KPD4 180804Z 19013KT 26/16 A2989 RMK A01 T02550164  RH  057%=      5-min Rain = 0
KPD4 180805Z 19015KT 25/16 A2989 RMK A01 T02540164  RH  057%=      5-min Rain = 0
KPD4 180806Z 19012KT 25/16 A2989 RMK A01 T02540164  RH  057%=      5-min Rain = 0
KPD4 180807Z 20011KT 25/17 A2989 RMK A01 T02540165  RH  058%=      5-min Rain = 0
KPD4 180808Z 19011KT 25/16 A2989 RMK A01 T02530164  RH  058%=      5-min Rain = 0
KPD4 180809Z 20012KT 25/17 A2989 RMK A01 T02520165  RH  058%=      5-min Rain = 0
KPD4 180810Z 20012KT 25/17 A2989 RMK A01 T02520165  RH  058%=      5-min Rain = 0
KPD4 180811Z 20011KT 25/17 A2989 RMK A01 T02520165  RH  059%=      5-min Rain = 0
KPD4 180812Z 19010KT 25/17 A2989 RMK A01 T02520165  RH  059%=      5-min Rain = 0
KPD4 180813Z 20012KT 25/17 A2989 RMK A01 T02510165  RH  059%=      5-min Rain = 0
KPD4 180814Z 19012KT 25/17 A2989 RMK A01 T02500165  RH  059%=      5-min Rain = 0
KPD4 180815Z 19011KT 25/17 A2989 RMK A01 T02510165  RH  059%=      5-min Rain = 0
KPD4 180816Z 19012KT 25/17 A2989 RMK A01 T02510165  RH  059%=      5-min Rain = 0
KPD4 180817Z 19011KT 25/17 A2989 RMK A01 T02510165  RH  059%=      5-min Rain = 0
KPD4 180818Z 19012KT 25/17 A2989 RMK A01 T02510165  RH  059%=      5-min Rain = 0
KPD4 180819Z 19012KT 25/17 A2989 RMK A01 T02510165  RH  059%=      5-min Rain = 0
KPD4 180820Z 19010KT 25/17 A2989 RMK A01 T02510165  RH  059%=      5-min Rain = 0
KPD4 180821Z 19010KT 25/17 A2989 RMK A01 T02510165  RH  059%=      5-min Rain = 0
KPD4 180822Z 19009KT 25/17 A2989 RMK A01 T02500165  RH  059%=      5-min Rain = 0
KPD4 180823Z 20009KT 25/17 A2989 RMK A01 T02490165  RH  060%=      5-min Rain = 0
KPD4 180824Z 19010KT 25/17 A2989 RMK A01 T02490165  RH  060%=      5-min Rain = 0
KPD4 180825Z 20008KT 25/17 A2989 RMK A01 T02490165  RH  060%=      5-min Rain = 0
KPD4 180826Z 20009KT 25/17 A2989 RMK A01 T02480165  RH  060%=      5-min Rain = 0
KPD4 180827Z 20010KT 25/17 A2989 RMK A01 T02480165  RH  060%=      5-min Rain = 0
KPD4 180828Z 20010KT 25/17 A2989 RMK A01 T02480165  RH  060%=      5-min Rain = 0
KPD4 180829Z 20008KT 25/17 A2989 RMK A01 T02490165  RH  060%=      5-min Rain = 0
KPD4 180830Z 20008KT 25/17 A299 RMK A01 T02490165  RH  060%=      5-min Rain = 0
KPD4 180831Z 20009KT 25/17 A299 RMK A01 T02490166  RH  060%=      5-min Rain = 0
KPD4 180832Z 20008KT 25/17 A299 RMK A01 T02490166  RH  060%=      5-min Rain = 0
KPD4 180833Z 20007KT 25/17 A299 RMK A01 T02480165  RH  060%=      5-min Rain = 0
KPD4 180834Z 20008KT 25/17 A299 RMK A01 T02480166  RH  060%=      5-min Rain = 0
KPD4 180835Z 19008KT 25/17 A299 RMK A01 T02480166  RH  060%=      5-min Rain = 0
KPD4 180836Z 19009KT 25/17 A299 RMK A01 T02480166  RH  060%=      5-min Rain = 0
KPD4 180837Z 19009KT 25/17 A299 RMK A01 T02480165  RH  060%=      5-min Rain = 0
KPD4 180838Z 19008KT 25/17 A299 RMK A01 T02480165  RH  060%=      5-min Rain = 0
KPD4 180839Z 19009KT 25/17 A299 RMK A01 T02480166  RH  060%=      5-min Rain = 0
KPD4 180840Z 19009KT 25/17 A299 RMK A01 T02480166  RH  060%=      5-min Rain = 0
KPD4 180841Z 19009KT 25/17 A299 RMK A01 T02480165  RH  060%=      5-min Rain = 0
KPD4 180842Z 19009KT 25/17 A299 RMK A01 T02490166  RH  060%=      5-min Rain = 0
KPD4 180843Z 19009KT 25/17 A299 RMK A01 T02490166  RH  060%=      5-min Rain = 0
KPD4 180844Z 19010KT 25/17 A299 RMK A01 T02490166  RH  060%=      5-min Rain = 0
KPD4 180845Z 19010KT 25/17 A299 RMK A01 T02480166  RH  060%=      5-min Rain = 0
KPD4 180846Z 19010KT 25/17 A299 RMK A01 T02480166  RH  060%=      5-min Rain = 0
KPD4 180847Z 19011KT 25/17 A299 RMK A01 T02480166  RH  060%=      5-min Rain = 0
KPD4 180848Z 19010KT 25/17 A299 RMK A01 T02480166  RH  060%=      5-min Rain = 0
KPD4 180849Z 19009KT 25/17 A299 RMK A01 T02480166  RH  060%=      5-min Rain = 0
KPD4 180850Z 19009KT 25/17 A299 RMK A01 T02480166  RH  060%=      5-min Rain = 0
KPD4 180851Z 19009KT 25/17 A299 RMK A01 T02470166  RH  061%=      5-min Rain = 0
KPD4 180852Z 19009KT 25/17 A299 RMK A01 T02470166  RH  061%=      5-min Rain = 0
KPD4 180853Z 19010KT 25/17 A299 RMK A01 T02460167  RH  061%=      5-min Rain = 0
KPD4 180854Z 19010KT 25/17 A299 RMK A01 T02460166  RH  061%=      5-min Rain = 0
KPD4 180855Z 19010KT 25/17 A299 RMK A01 T02450166  RH  061%=      5-min Rain = 0
KPD4 180856Z 19010KT 25/17 A299 RMK A01 T02450166  RH  061%=      5-min Rain = 0
KPD4 180857Z 19010KT 25/17 A299 RMK A01 T02450166  RH  061%=      5-min Rain = 0
KPD4 180858Z 19010KT 25/17 A2989 RMK A01 T02450166  RH  061%=      5-min Rain = 0
KPD4 180859Z 19010KT 25/17 A2989 RMK A01 T02450166  RH  061%=      5-min Rain = 0
KPD4 180900Z 20010KT 25/17 A2989 RMK A01 T02450166  RH  062%=      5-min Rain = 0
KPD4 180901Z 19010KT 25/17 A2989 RMK A01 T02450167  RH  062%=      5-min Rain = 0
KPD4 180902Z 19010KT 24/17 A2989 RMK A01 T02440166  RH  062%=      5-min Rain = 0
KPD4 180903Z 19010KT 24/17 A2989 RMK A01 T02440166  RH  062%=      5-min Rain = 0
KPD4 180904Z 19011KT 24/17 A2989 RMK A01 T02440166  RH  062%=      5-min Rain = 0
KPD4 180905Z 19010KT 24/17 A2989 RMK A01 T02440166  RH  062%=      5-min Rain = 0
KPD4 180906Z 19010KT 24/17 A2989 RMK A01 T02440166  RH  062%=      5-min Rain = 0
KPD4 180907Z 19009KT 24/17 A2989 RMK A01 T02440166  RH  062%=      5-min Rain = 0
KPD4 180908Z 19010KT 24/17 A2989 RMK A01 T02440166  RH  062%=      5-min Rain = 0
KPD4 180909Z 19011KT 24/17 A2989 RMK A01 T02440166  RH  062%=      5-min Rain = 0
KPD4 180910Z 20010KT 24/17 A2989 RMK A01 T02440166  RH  062%=      5-min Rain = 0
KPD4 180911Z 19010KT 24/17 A2989 RMK A01 T02440167  RH  062%=      5-min Rain = 0
KPD4 180912Z 19010KT 24/17 A2989 RMK A01 T02440166  RH  062%=      5-min Rain = 0
KPD4 180913Z 19010KT 24/17 A2989 RMK A01 T02430166  RH  062%=      5-min Rain = 0
KPD4 180914Z 19011KT 24/17 A2989 RMK A01 T02430166  RH  062%=      5-min Rain = 0
KPD4 180915Z 19012KT 24/17 A2989 RMK A01 T02430166  RH  062%=      5-min Rain = 0
KPD4 180916Z 19012KT 24/17 A2989 RMK A01 T02440166  RH  062%=      5-min Rain = 0
KPD4 180917Z 19011KT 25/17 A2989 RMK A01 T02450166  RH  061%=      5-min Rain = 0
KPD4 180918Z 19012KT 25/17 A2989 RMK A01 T02450166  RH  061%=      5-min Rain = 0
KPD4 180919Z 19010KT 25/17 A2989 RMK A01 T02450167  RH  062%=      5-min Rain = 0
KPD4 180920Z 19010KT 24/17 A2989 RMK A01 T02440166  RH  062%=      5-min Rain = 0
KPD4 180921Z 19011KT 24/17 A2989 RMK A01 T02430166  RH  062%=      5-min Rain = 0
KPD4 180922Z 19011KT 24/17 A2989 RMK A01 T02430166  RH  062%=      5-min Rain = 0
KPD4 180923Z 19010KT 24/17 A2989 RMK A01 T02420166  RH  062%=      5-min Rain = 0
KPD4 180924Z 19010KT 24/17 A2989 RMK A01 T02430166  RH  062%=      5-min Rain = 0
KPD4 180925Z 19011KT 24/17 A2989 RMK A01 T02430166  RH  062%=      5-min Rain = 0
KPD4 180926Z 19010KT 24/17 A2989 RMK A01 T02440166  RH  062%=      5-min Rain = 0
KPD4 180927Z 19011KT 24/17 A2989 RMK A01 T02440166  RH  062%=      5-min Rain = 0
KPD4 180928Z 19010KT 24/17 A2989 RMK A01 T02440166  RH  062%=      5-min Rain = 0
KPD4 180929Z 19011KT 24/17 A2989 RMK A01 T02440166  RH  062%=      5-min Rain = 0
KPD4 180930Z 19009KT 25/17 A2989 RMK A01 T02450165  RH  061%=      5-min Rain = 0
KPD4 180931Z 19012KT 25/17 A2989 RMK A01 T02450166  RH  061%=      5-min Rain = 0
KPD4 180932Z 19012KT 25/17 A2989 RMK A01 T02450165  RH  061%=      5-min Rain = 0
KPD4 180933Z 19013KT 25/17 A2989 RMK A01 T02460165  RH  061%=      5-min Rain = 0
KPD4 180934Z 19012KT 25/17 A2989 RMK A01 T02470165  RH  060%=      5-min Rain = 0
KPD4 180935Z 19012KT 25/17 A2989 RMK A01 T02480165  RH  060%=      5-min Rain = 0
KPD4 180936Z 19012KT 25/17 A2989 RMK A01 T02480165  RH  060%=      5-min Rain = 0
KPD4 180937Z 19013KT 25/17 A2989 RMK A01 T02480165  RH  060%=      5-min Rain = 0
KPD4 180938Z 19011KT 25/17 A2989 RMK A01 T02480165  RH  060%=      5-min Rain = 0
KPD4 180939Z 19012KT 25/17 A2989 RMK A01 T02490165  RH  060%=      5-min Rain = 0
KPD4 180940Z 19011KT 25/17 A2989 RMK A01 T02490165  RH  060%=      5-min Rain = 0
KPD4 180941Z 19011KT 25/17 A2989 RMK A01 T02480165  RH  060%=      5-min Rain = 0
KPD4 180942Z 19011KT 25/17 A2989 RMK A01 T02480165  RH  060%=      5-min Rain = 0
KPD4 180943Z 20013KT 25/17 A2989 RMK A01 T02480165  RH  060%=      5-min Rain = 0
KPD4 180944Z 19011KT 25/16 A2989 RMK A01 T02480164  RH  060%=      5-min Rain = 0
KPD4 180945Z 19013KT 25/16 A2989 RMK A01 T02490164  RH  059%=      5-min Rain = 0
KPD4 180946Z 19013KT 25/16 A2989 RMK A01 T02490164  RH  059%=      5-min Rain = 0
KPD4 180947Z 19013KT 25/16 A2989 RMK A01 T02490164  RH  059%=      5-min Rain = 0
KPD4 180948Z 19012KT 25/16 A2989 RMK A01 T02490164  RH  059%=      5-min Rain = 0
KPD4 180949Z 19012KT 25/16 A2989 RMK A01 T02490164  RH  059%=      5-min Rain = 0
KPD4 180950Z 18012KT 25/16 A2989 RMK A01 T02490164  RH  059%=      5-min Rain = 0
KPD4 180951Z 19011KT 25/16 A2989 RMK A01 T02480164  RH  059%=      5-min Rain = 0
KPD4 180952Z 19013KT 25/16 A2989 RMK A01 T02480164  RH  059%=      5-min Rain = 0
KPD4 180953Z 19012KT 25/16 A2989 RMK A01 T02480164  RH  059%=      5-min Rain = 0
KPD4 180954Z 19011KT 25/16 A2989 RMK A01 T02490164  RH  059%=      5-min Rain = 0
KPD4 180955Z 19014KT 25/16 A2989 RMK A01 T02480164  RH  059%=      5-min Rain = 0
KPD4 180956Z 19014KT 25/16 A2989 RMK A01 T02480164  RH  059%=      5-min Rain = 0
KPD4 180957Z 19014KT 25/16 A2989 RMK A01 T02490163  RH  059%=      5-min Rain = 0
KPD4 180958Z 19013KT 25/16 A2989 RMK A01 T02500164  RH  059%=      5-min Rain = 0
KPD4 180959Z 19013KT 25/16 A2989 RMK A01 T02500163  RH  059%=      5-min Rain = 0
KPD4 181000Z 19013KT 25/16 A2989 RMK A01 T02500163  RH  059%=      5-min Rain = 0
KPD4 181001Z 18013KT 25/16 A2989 RMK A01 T02500164  RH  059%=      5-min Rain = 0
KPD4 181002Z 18014KT 25/16 A2989 RMK A01 T02500163  RH  059%=      5-min Rain = 0
KPD4 181003Z 18014KT 25/16 A2989 RMK A01 T02500164  RH  059%=      5-min Rain = 0
KPD4 181004Z 18012KT 25/16 A2989 RMK A01 T02500164  RH  059%=      5-min Rain = 0
KPD4 181005Z 19013KT 25/16 A2989 RMK A01 T02490164  RH  059%=      5-min Rain = 0
KPD4 181006Z 19013KT 25/16 A2989 RMK A01 T02490163  RH  059%=      5-min Rain = 0
KPD4 181007Z 18013KT 25/16 A2989 RMK A01 T02490164  RH  059%=      5-min Rain = 0
KPD4 181008Z 19012KT 25/16 A2989 RMK A01 T02490164  RH  059%=      5-min Rain = 0
KPD4 181009Z 19013KT 25/16 A2989 RMK A01 T02490164  RH  059%=      5-min Rain = 0
KPD4 181010Z 19013KT 25/16 A2989 RMK A01 T02480163  RH  059%=      5-min Rain = 0
KPD4 181011Z 19012KT 25/16 A2989 RMK A01 T02480164  RH  059%=      5-min Rain = 0
KPD4 181012Z 19013KT 25/16 A2989 RMK A01 T02480163  RH  059%=      5-min Rain = 0
KPD4 181013Z 19013KT 25/16 A2989 RMK A01 T02480163  RH  059%=      5-min Rain = 0
KPD4 181014Z 19013KT 25/16 A2989 RMK A01 T02480163  RH  059%=      5-min Rain = 0
KPD4 181015Z 19012KT 25/16 A2989 RMK A01 T02480163  RH  059%=      5-min Rain = 0
KPD4 181016Z 19011KT 25/16 A299 RMK A01 T02480164  RH  059%=      5-min Rain = 0
KPD4 181017Z 19012KT 25/16 A299 RMK A01 T02480164  RH  059%=      5-min Rain = 0
KPD4 181018Z 19013KT 25/16 A299 RMK A01 T02470163  RH  060%=      5-min Rain = 0
KPD4 181019Z 19012KT 25/16 A299 RMK A01 T02470163  RH  059%=      5-min Rain = 0
KPD4 181020Z 19011G16KT 25/16 A299 RMK A01 T02480164  RH  059%=      5-min Rain = 0
KPD4 181021Z 19011KT 25/16 A299 RMK A01 T02480164  RH  060%=      5-min Rain = 0
KPD4 181022Z 18012KT 25/16 A299 RMK A01 T02470163  RH  060%=      5-min Rain = 0
KPD4 181023Z 19012KT 25/16 A299 RMK A01 T02470163  RH  060%=      5-min Rain = 0
KPD4 181024Z 19011KT 25/16 A299 RMK A01 T02470163  RH  060%=      5-min Rain = 0
KPD4 181025Z 18013KT 25/16 A299 RMK A01 T02470163  RH  060%=      5-min Rain = 0
KPD4 181026Z 19014KT 25/16 A2989 RMK A01 T02470163  RH  060%=      5-min Rain = 0
KPD4 181027Z 19015KT 25/16 A2989 RMK A01 T02470163  RH  060%=      5-min Rain = 0
KPD4 181028Z 18012KT 25/16 A2989 RMK A01 T02480163  RH  059%=      5-min Rain = 0
KPD4 181029Z 18013KT 25/16 A2989 RMK A01 T02480163  RH  059%=      5-min Rain = 0
KPD4 181030Z 18013KT 25/16 A2989 RMK A01 T02470163  RH  060%=      5-min Rain = 0
KPD4 181031Z 18015KT 25/16 A2989 RMK A01 T02470163  RH  060%=      5-min Rain = 0
KPD4 181032Z 18014KT 25/16 A2989 RMK A01 T02480163  RH  059%=      5-min Rain = 0
KPD4 181033Z 19012KT 25/16 A2989 RMK A01 T02480163  RH  059%=      5-min Rain = 0
KPD4 181034Z 19012KT 25/16 A2989 RMK A01 T02480163  RH  059%=      5-min Rain = 0
KPD4 181035Z 19011KT 25/16 A299 RMK A01 T02480164  RH  059%=      5-min Rain = 0
KPD4 181036Z 19011KT 25/16 A299 RMK A01 T02470163  RH  060%=      5-min Rain = 0
KPD4 181037Z 19013KT 25/16 A299 RMK A01 T02470164  RH  060%=      5-min Rain = 0
KPD4 181038Z 19013KT 25/16 A299 RMK A01 T02470163  RH  059%=      5-min Rain = 0
KPD4 181039Z 19012KT 25/16 A299 RMK A01 T02480163  RH  059%=      5-min Rain = 0
KPD4 181040Z 20012KT 25/16 A299 RMK A01 T02480163  RH  059%=      5-min Rain = 0
KPD4 181041Z 19011KT 25/16 A299 RMK A01 T02480163  RH  059%=      5-min Rain = 0
KPD4 181042Z 19013KT 25/16 A299 RMK A01 T02480164  RH  059%=      5-min Rain = 0
KPD4 181043Z 19012KT 25/16 A299 RMK A01 T02480163  RH  059%=      5-min Rain = 0
KPD4 181044Z 19013KT 25/16 A299 RMK A01 T02480163  RH  059%=      5-min Rain = 0
KPD4 181045Z 19013KT 25/16 A299 RMK A01 T02480163  RH  059%=      5-min Rain = 0
KPD4 181046Z 19014KT 25/16 A299 RMK A01 T02490163  RH  059%=      5-min Rain = 0
KPD4 181047Z 19014KT 25/16 A299 RMK A01 T02500163  RH  058%=      5-min Rain = 0
KPD4 181048Z 19016KT 25/16 A299 RMK A01 T02510163  RH  058%=      5-min Rain = 0
KPD4 181049Z 19014KT 25/16 A299 RMK A01 T02520163  RH  058%=      5-min Rain = 0
KPD4 181050Z 19015KT 25/16 A299 RMK A01 T02530163  RH  058%=      5-min Rain = 0
KPD4 181051Z 19013KT 25/16 A299 RMK A01 T02530163  RH  058%=      5-min Rain = 0
KPD4 181052Z 19012G17KT 25/16 A299 RMK A01 T02530163  RH  058%=      5-min Rain = 0
KPD4 181053Z 19014KT 25/16 A299 RMK A01 T02530163  RH  058%=      5-min Rain = 0
KPD4 181054Z 19016KT 25/16 A299 RMK A01 T02530163  RH  058%=      5-min Rain = 0
KPD4 181055Z 19016KT 25/16 A299 RMK A01 T02530163  RH  057%=      5-min Rain = 0
KPD4 181056Z 19016KT 25/16 A299 RMK A01 T02540163  RH  057%=      5-min Rain = 0
KPD4 181057Z 19015KT 26/16 A299 RMK A01 T02550164  RH  057%=      5-min Rain = 0
KPD4 181058Z 19015KT 25/16 A299 RMK A01 T02540163  RH  057%=      5-min Rain = 0
KPD4 181059Z 19017KT 26/16 A299 RMK A01 T02550164  RH  057%=      5-min Rain = 0
KPD4 181100Z 20014KT 26/16 A299 RMK A01 T02560164  RH  057%=      5-min Rain = 0
KPD4 181101Z 20015KT 26/16 A299 RMK A01 T02560164  RH  057%=      5-min Rain = 0
KPD4 181102Z 19014KT 26/16 A299 RMK A01 T02560164  RH  057%=      5-min Rain = 0
KPD4 181103Z 19016KT 26/16 A299 RMK A01 T02550164  RH  057%=      5-min Rain = 0
KPD4 181104Z 19015KT 26/16 A299 RMK A01 T02550164  RH  057%=      5-min Rain = 0
KPD4 181105Z 19017KT 26/16 A299 RMK A01 T02560164  RH  057%=      5-min Rain = 0
KPD4 181106Z 20014KT 26/16 A299 RMK A01 T02560164  RH  057%=      5-min Rain = 0
KPD4 181107Z 19014KT 26/17 A299 RMK A01 T02550165  RH  057%=      5-min Rain = 0
KPD4 181108Z 19015KT 26/16 A299 RMK A01 T02550164  RH  057%=      5-min Rain = 0
KPD4 181109Z 19014KT 25/16 A299 RMK A01 T02540164  RH  057%=      5-min Rain = 0
KPD4 181110Z 20016KT 25/16 A299 RMK A01 T02540164  RH  057%=      5-min Rain = 0
KPD4 181111Z 20016KT 26/17 A299 RMK A01 T02550165  RH  057%=      5-min Rain = 0
KPD4 181112Z 19015KT 26/16 A299 RMK A01 T02550164  RH  057%=      5-min Rain = 0
KPD4 181113Z 20017KT 26/16 A299 RMK A01 T02550164  RH  057%=      5-min Rain = 0
KPD4 181114Z 19015KT 26/16 A299 RMK A01 T02550164  RH  057%=      5-min Rain = 0
KPD4 181115Z 19014KT 26/17 A299 RMK A01 T02550165  RH  057%=      5-min Rain = 0
KPD4 181116Z 19016KT 26/17 A299 RMK A01 T02560165  RH  057%=      5-min Rain = 0
KPD4 181117Z 19014KT 26/17 A299 RMK A01 T02560165  RH  057%=      5-min Rain = 0
KPD4 181118Z 19014KT 26/17 A299 RMK A01 T02550165  RH  057%=      5-min Rain = 0
KPD4 181119Z 19016KT 26/17 A299 RMK A01 T02550165  RH  057%=      5-min Rain = 0
KPD4 181120Z 19013KT 26/17 A299 RMK A01 T02550165  RH  057%=      5-min Rain = 0
KPD4 181121Z 19012KT 26/17 A299 RMK A01 T02550165  RH  058%=      5-min Rain = 0
KPD4 181122Z 20011KT 25/17 A299 RMK A01 T02540165  RH  058%=      5-min Rain = 0
KPD4 181123Z 19012G17KT 25/17 A299 RMK A01 T02540165  RH  058%=      5-min Rain = 0
KPD4 181124Z 19014KT 25/17 A299 RMK A01 T02540165  RH  058%=      5-min Rain = 0
KPD4 181125Z 19014KT 25/17 A299 RMK A01 T02540165  RH  058%=      5-min Rain = 0
KPD4 181126Z 19014KT 26/17 A299 RMK A01 T02550165  RH  058%=      5-min Rain = 0
KPD4 181127Z 19014KT 25/17 A299 RMK A01 T02540165  RH  058%=      5-min Rain = 0
KPD4 181128Z 19012KT 26/17 A299 RMK A01 T02550165  RH  058%=      5-min Rain = 0
KPD4 181129Z 19014KT 25/17 A299 RMK A01 T02540166  RH  058%=      5-min Rain = 0
KPD4 181130Z 19013KT 25/17 A299 RMK A01 T02540166  RH  058%=      5-min Rain = 0
KPD4 181131Z 19015KT 25/17 A299 RMK A01 T02540165  RH  058%=      5-min Rain = 0
KPD4 181132Z 19014KT 25/17 A299 RMK A01 T02540165  RH  058%=      5-min Rain = 0
KPD4 181133Z 20014KT 26/17 A299 RMK A01 T02550166  RH  058%=      5-min Rain = 0
KPD4 181134Z 19011KT 25/17 A299 RMK A01 T02540166  RH  058%=      5-min Rain = 0
KPD4 181135Z 19011KT 25/17 A299 RMK A01 T02540166  RH  058%=      5-min Rain = 0
KPD4 181136Z 19013KT 25/17 A299 RMK A01 T02530166  RH  058%=      5-min Rain = 0
KPD4 181137Z 19013KT 25/17 A299 RMK A01 T02530166  RH  058%=      5-min Rain = 0
KPD4 181138Z 19013KT 25/17 A299 RMK A01 T02530166  RH  058%=      5-min Rain = 0
KPD4 181139Z 19012KT 25/17 A299 RMK A01 T02530166  RH  059%=      5-min Rain = 0
KPD4 181140Z 19013KT 25/17 A299 RMK A01 T02530166  RH  059%=      5-min Rain = 0
KPD4 181141Z 19013KT 25/17 A299 RMK A01 T02530166  RH  059%=      5-min Rain = 0
KPD4 181142Z 19012KT 25/17 A299 RMK A01 T02530166  RH  059%=      5-min Rain = 0
KPD4 181143Z 19012KT 25/17 A299 RMK A01 T02530166  RH  059%=      5-min Rain = 0
KPD4 181144Z 19011KT 25/17 A299 RMK A01 T02530167  RH  059%=      5-min Rain = 0
KPD4 181145Z 20012KT 25/17 A299 RMK A01 T02520167  RH  059%=      5-min Rain = 0
KPD4 181146Z 19012KT 25/17 A299 RMK A01 T02520167  RH  059%=      5-min Rain = 0
KPD4 181147Z 20012KT 25/17 A299 RMK A01 T02520167  RH  059%=      5-min Rain = 0
KPD4 181148Z 20014KT 25/17 A299 RMK A01 T02520166  RH  059%=      5-min Rain = 0
KPD4 181149Z 20013KT 25/17 A299 RMK A01 T02520166  RH  059%=      5-min Rain = 0
KPD4 181150Z 20012KT 25/17 A299 RMK A01 T02530167  RH  059%=      5-min Rain = 0
KPD4 181151Z 20015KT 25/17 A299 RMK A01 T02530167  RH  059%=      5-min Rain = 0
KPD4 181152Z 20013KT 25/17 A299 RMK A01 T02530166  RH  059%=      5-min Rain = 0
KPD4 181153Z 20012KT 25/17 A299 RMK A01 T02540167  RH  059%=      5-min Rain = 0
KPD4 181154Z 20014KT 25/17 A299 RMK A01 T02540167  RH  059%=      5-min Rain = 0
KPD4 181155Z 20014KT 25/17 A299 RMK A01 T02530167  RH  059%=      5-min Rain = 0
KPD4 181156Z 20012KT 25/17 A299 RMK A01 T02530167  RH  059%=      5-min Rain = 0
KPD4 181157Z 20014KT 25/17 A299 RMK A01 T02530167  RH  059%=      5-min Rain = 0
KPD4 181158Z 20013KT 25/17 A299 RMK A01 T02530167  RH  059%=      5-min Rain = 0
KPD4 181159Z 20014KT 25/17 A2991 RMK A01 T02530167  RH  059%=      5-min Rain = 0
KPD4 181200Z 20014KT 25/17 A2991 RMK A01 T02530168  RH  059%=      5-min Rain = 0
KPD4 181201Z 20014KT 25/17 A2991 RMK A01 T02530168  RH  059%=      5-min Rain = 0
KPD4 181202Z 21014KT 25/17 A299 RMK A01 T02530168  RH  059%=      5-min Rain = 0
KPD4 181203Z 20012KT 25/17 A2991 RMK A01 T02530167  RH  059%=      5-min Rain = 0
KPD4 181204Z 20013KT 25/17 A2991 RMK A01 T02530168  RH  059%=      5-min Rain = 0
KPD4 181205Z 20015KT 25/17 A299 RMK A01 T02530168  RH  059%=      5-min Rain = 0
KPD4 181206Z 20013KT 25/17 A299 RMK A01 T02530168  RH  059%=      5-min Rain = 0
KPD4 181207Z 20012KT 25/17 A299 RMK A01 T02530168  RH  059%=      5-min Rain = 0
KPD4 181208Z 20012KT 25/17 A299 RMK A01 T02520168  RH  060%=      5-min Rain = 0
KPD4 181209Z 20012KT 25/17 A299 RMK A01 T02520168  RH  060%=      5-min Rain = 0
KPD4 181210Z 20014KT 25/17 A299 RMK A01 T02520168  RH  060%=      5-min Rain = 0
KPD4 181211Z 19014KT 25/17 A299 RMK A01 T02520168  RH  060%=      5-min Rain = 0
KPD4 181212Z 20013KT 25/17 A299 RMK A01 T02520168  RH  060%=      5-min Rain = 0
KPD4 181213Z 20012KT 25/17 A299 RMK A01 T02520168  RH  060%=      5-min Rain = 0
KPD4 181214Z 19012KT 25/17 A299 RMK A01 T02520168  RH  060%=      5-min Rain = 0
KPD4 181215Z 19013KT 25/17 A299 RMK A01 T02510168  RH  060%=      5-min Rain = 0
KPD4 181216Z 20012KT 25/17 A299 RMK A01 T02510168  RH  060%=      5-min Rain = 0
KPD4 181217Z 19014KT 25/17 A299 RMK A01 T02510168  RH  060%=      5-min Rain = 0
KPD4 181218Z 19015KT 25/17 A299 RMK A01 T02510168  RH  060%=      5-min Rain = 0
KPD4 181219Z 19012KT 25/17 A299 RMK A01 T02510168  RH  060%=      5-min Rain = 0
KPD4 181220Z 19013KT 25/17 A299 RMK A01 T02510168  RH  060%=      5-min Rain = 0
KPD4 181221Z 19011KT 25/17 A299 RMK A01 T02510169  RH  060%=      5-min Rain = 0
KPD4 181222Z 19012KT 25/17 A299 RMK A01 T02510169  RH  060%=      5-min Rain = 0
KPD4 181223Z 19014KT 25/17 A299 RMK A01 T02510169  RH  060%=      5-min Rain = 0
KPD4 181224Z 19013KT 25/17 A299 RMK A01 T02510169  RH  060%=      5-min Rain = 0
KPD4 181225Z 19012KT 25/17 A299 RMK A01 T02510168  RH  060%=      5-min Rain = 0
KPD4 181226Z 19012KT 25/17 A299 RMK A01 T02510169  RH  060%=      5-min Rain = 0
KPD4 181227Z 19012KT 25/17 A299 RMK A01 T02510169  RH  060%=      5-min Rain = 0
KPD4 181228Z 19012KT 25/17 A299 RMK A01 T02510170  RH  061%=      5-min Rain = 0
KPD4 181229Z 19013KT 25/17 A299 RMK A01 T02510169  RH  061%=      5-min Rain = 0
KPD4 181230Z 20011KT 25/17 A299 RMK A01 T02500169  RH  061%=      5-min Rain = 0
KPD4 181231Z 20013KT 25/17 A299 RMK A01 T02510170  RH  061%=      5-min Rain = 0
KPD4 181232Z 19012G17KT 25/17 A299 RMK A01 T02500170  RH  061%=      5-min Rain = 0
KPD4 181233Z 19013KT 25/17 A299 RMK A01 T02510169  RH  061%=      5-min Rain = 0
KPD4 181234Z 19014KT 25/17 A299 RMK A01 T02500169  RH  061%=      5-min Rain = 0
KPD4 181235Z 19013KT 25/17 A299 RMK A01 T02500169  RH  061%=      5-min Rain = 0
KPD4 181236Z 20013KT 25/17 A299 RMK A01 T02510169  RH  061%=      5-min Rain = 0
KPD4 181237Z 19013KT 25/17 A299 RMK A01 T02500169  RH  061%=      5-min Rain = 0
KPD4 181238Z 20011KT 25/17 A2991 RMK A01 T02500169  RH  061%=      5-min Rain = 0
KPD4 181239Z 19011KT 25/17 A2991 RMK A01 T02500170  RH  061%=      5-min Rain = 0
KPD4 181240Z 19012KT 25/17 A2991 RMK A01 T02500170  RH  061%=      5-min Rain = 0
KPD4 181241Z 20011KT 25/17 A2991 RMK A01 T02500170  RH  061%=      5-min Rain = 0
KPD4 181242Z 19013KT 25/17 A2991 RMK A01 T02500170  RH  061%=      5-min Rain = 0
KPD4 181243Z 19013KT 25/17 A2991 RMK A01 T02500170  RH  061%=      5-min Rain = 0
KPD4 181244Z 19012KT 25/17 A2991 RMK A01 T02500170  RH  061%=      5-min Rain = 0
KPD4 181245Z 19013KT 25/17 A2991 RMK A01 T02500170  RH  061%=      5-min Rain = 0
KPD4 181246Z 20013KT 25/17 A2991 RMK A01 T02500170  RH  061%=      5-min Rain = 0
KPD4 181247Z 19011KT 25/17 A2991 RMK A01 T02510170  RH  061%=      5-min Rain = 0
KPD4 181248Z 20012KT 25/17 A2991 RMK A01 T02510170  RH  061%=      5-min Rain = 0
KPD4 181249Z 20011KT 25/17 A2991 RMK A01 T02500170  RH  061%=      5-min Rain = 0
KPD4 181250Z 20012KT 25/17 A2991 RMK A01 T02500170  RH  061%=      5-min Rain = 0
KPD4 181251Z 20011KT 25/17 A2991 RMK A01 T02500170  RH  061%=      5-min Rain = 0
KPD4 181252Z 20009KT 25/17 A2991 RMK A01 T02500171  RH  061%=      5-min Rain = 0
KPD4 181253Z 20012KT 25/17 A2991 RMK A01 T02510170  RH  061%=      5-min Rain = 0
KPD4 181254Z 19011KT 25/17 A2991 RMK A01 T02510170  RH  061%=      5-min Rain = 0
KPD4 181255Z 20011KT 25/17 A2991 RMK A01 T02510171  RH  061%=      5-min Rain = 0
KPD4 181256Z 20012KT 25/17 A2991 RMK A01 T02510171  RH  061%=      5-min Rain = 0
KPD4 181257Z 20011KT 25/17 A2991 RMK A01 T02520171  RH  061%=      5-min Rain = 0
KPD4 181258Z 20010KT 25/17 A2991 RMK A01 T02510171  RH  061%=      5-min Rain = 0
KPD4 181259Z 20011KT 25/17 A2991 RMK A01 T02510171  RH  061%=      5-min Rain = 0
KPD4 181300Z 19010KT 25/17 A2991 RMK A01 T02520171  RH  061%=      5-min Rain = 0
KPD4 181301Z 20011G16KT 25/17 A2991 RMK A01 T02520171  RH  061%=      5-min Rain = 0
KPD4 181302Z 21013KT 25/17 A2991 RMK A01 T02520171  RH  061%=      5-min Rain = 0
KPD4 181303Z 20013KT 25/17 A2991 RMK A01 T02530171  RH  060%=      5-min Rain = 0
KPD4 181304Z 21011KT 25/17 A2991 RMK A01 T02540171  RH  060%=      5-min Rain = 0
KPD4 181305Z 21011KT 25/17 A2992 RMK A01 T02540171  RH  060%=      5-min Rain = 0
KPD4 181306Z 20011KT 25/17 A2992 RMK A01 T02540172  RH  060%=      5-min Rain = 0
KPD4 181307Z 20010KT 25/17 A2992 RMK A01 T02540172  RH  060%=      5-min Rain = 0
KPD4 181308Z 20012KT 25/17 A2992 RMK A01 T02540172  RH  060%=      5-min Rain = 0
KPD4 181309Z 21010KT 26/17 A2992 RMK A01 T02550172  RH  060%=      5-min Rain = 0
KPD4 181310Z 20011KT 26/17 A2992 RMK A01 T02560172  RH  060%=      5-min Rain = 0
KPD4 181311Z 20010KT 26/17 A2992 RMK A01 T02560172  RH  060%=      5-min Rain = 0
KPD4 181312Z 20009KT 26/17 A2992 RMK A01 T02570174  RH  060%=      5-min Rain = 0
KPD4 181313Z 20008KT 26/17 A2992 RMK A01 T02570174  RH  060%=      5-min Rain = 0
KPD4 181314Z 20011KT 26/17 A2992 RMK A01 T02570173  RH  060%=      5-min Rain = 0
KPD4 181315Z 21009KT 26/17 A2992 RMK A01 T02570173  RH  060%=      5-min Rain = 0
KPD4 181316Z 20009KT 26/18 A2992 RMK A01 T02580175  RH  060%=      5-min Rain = 0
KPD4 181317Z 20012KT 26/17 A2992 RMK A01 T02580173  RH  060%=      5-min Rain = 0
KPD4 181318Z 21012KT 26/17 A2992 RMK A01 T02580173  RH  059%=      5-min Rain = 0
KPD4 181319Z 20012KT 26/17 A2992 RMK A01 T02590173  RH  059%=      5-min Rain = 0
KPD4 181320Z 20010KT 26/17 A2992 RMK A01 T02600173  RH  059%=      5-min Rain = 0
KPD4 181321Z 20010KT 26/18 A2992 RMK A01 T02610175  RH  059%=      5-min Rain = 0
KPD4 181322Z 21013G18KT 26/18 A2992 RMK A01 T02630175  RH  058%=      5-min Rain = 0
KPD4 181323Z 19015KT 26/17 A2992 RMK A01 T02640173  RH  058%=      5-min Rain = 0
KPD4 181324Z 20015KT 27/17 A2992 RMK A01 T02650173  RH  057%=      5-min Rain = 0
KPD4 181325Z 20014KT 27/17 A2992 RMK A01 T02660173  RH  057%=      5-min Rain = 0
KPD4 181326Z 20014KT 27/17 A2992 RMK A01 T02660174  RH  057%=      5-min Rain = 0
KPD4 181327Z 20016KT 27/17 A2992 RMK A01 T02680174  RH  057%=      5-min Rain = 0
KPD4 181328Z 20012G17KT 27/18 A2992 RMK A01 T02670175  RH  057%=      5-min Rain = 0
KPD4 181329Z 20015KT 27/17 A2992 RMK A01 T02680173  RH  056%=      5-min Rain = 0
KPD4 181330Z 20016KT 27/17 A2992 RMK A01 T02680174  RH  056%=      5-min Rain = 0
KPD4 181331Z 20014KT 27/17 A2992 RMK A01 T02690174  RH  056%=      5-min Rain = 0
KPD4 181332Z 20013KT 27/17 A2992 RMK A01 T02710174  RH  055%=      5-min Rain = 0
KPD4 181333Z 19015KT 27/18 A2992 RMK A01 T02720175  RH  055%=      5-min Rain = 0
KPD4 181334Z 20016KT 27/17 A2992 RMK A01 T02730174  RH  055%=      5-min Rain = 0
KPD4 181335Z 20017KT 27/17 A2992 RMK A01 T02740174  RH  055%=      5-min Rain = 0
KPD4 181336Z 20016G21KT 27/17 A2992 RMK A01 T02740174  RH  054%=      5-min Rain = 0
KPD4 181337Z 20014KT 28/17 A2992 RMK A01 T02750174  RH  054%=      5-min Rain = 0
KPD4 181338Z 20014KT 28/18 A2992 RMK A01 T02760175  RH  054%=      5-min Rain = 0
KPD4 181339Z 20013KT 28/17 A2991 RMK A01 T02760174  RH  054%=      5-min Rain = 0
KPD4 181340Z 20014KT 28/18 A2991 RMK A01 T02770176  RH  054%=      5-min Rain = 0
KPD4 181341Z 20016KT 28/17 A2991 RMK A01 T02770174  RH  053%=      5-min Rain = 0
KPD4 181342Z 21015KT 28/18 A2991 RMK A01 T02780176  RH  054%=      5-min Rain = 0
KPD4 181343Z 21016KT 28/17 A2991 RMK A01 T02780174  RH  053%=      5-min Rain = 0
KPD4 181344Z 20015KT 28/18 A2991 RMK A01 T02780175  RH  053%=      5-min Rain = 0
KPD4 181345Z 20013KT 28/18 A2991 RMK A01 T02780176  RH  054%=      5-min Rain = 0
KPD4 181346Z 21015KT 28/18 A2991 RMK A01 T02790176  RH  053%=      5-min Rain = 0
KPD4 181347Z 20014KT 28/18 A2991 RMK A01 T02800176  RH  053%=      5-min Rain = 0
KPD4 181348Z 21013KT 28/18 A2991 RMK A01 T02800176  RH  053%=      5-min Rain = 0
KPD4 181349Z 20018KT 28/18 A2991 RMK A01 T02810175  RH  053%=      5-min Rain = 0
KPD4 181350Z 20019KT 28/18 A2991 RMK A01 T02810175  RH  052%=      5-min Rain = 0
KPD4 181351Z 20016KT 28/17 A2991 RMK A01 T02800174  RH  053%=      5-min Rain = 0
KPD4 181352Z 20016G23KT 28/18 A2991 RMK A01 T02790175  RH  053%=      5-min Rain = 0
KPD4 181353Z 21017KT 28/17 A2991 RMK A01 T02790174  RH  053%=      5-min Rain = 0
KPD4 181354Z 21017KT 28/17 A2991 RMK A01 T02780174  RH  053%=      5-min Rain = 0
KPD4 181355Z 21018KT 28/17 A2991 RMK A01 T02780174  RH  053%=      5-min Rain = 0
KPD4 181356Z 21016KT 28/17 A2991 RMK A01 T02780174  RH  053%=      5-min Rain = 0
KPD4 181357Z 20018G25KT 28/17 A2991 RMK A01 T02770174  RH  053%=      5-min Rain = 0
KPD4 181358Z 20020KT 28/17 A2991 RMK A01 T02760173  RH  053%=      5-min Rain = 0
KPD4 181359Z 21021G27KT 28/17 A2991 RMK A01 T02770173  RH  053%=      5-min Rain = 0
KPD4 181400Z 21020G25KT 28/17 A2991 RMK A01 T02780173  RH  053%=      5-min Rain = 0
KPD4 181401Z 20018KT 28/17 A2991 RMK A01 T02790173  RH  053%=      5-min Rain = 0
KPD4 181402Z 21018KT 28/17 A2991 RMK A01 T02790174  RH  053%=      5-min Rain = 0
KPD4 181403Z 21018KT 28/17 A2991 RMK A01 T02800174  RH  052%=      5-min Rain = 0
KPD4 181404Z 21017G23KT 28/17 A2991 RMK A01 T02800174  RH  052%=      5-min Rain = 0
KPD4 181405Z 21015KT 28/18 A2991 RMK A01 T02810176  RH  053%=      5-min Rain = 0
KPD4 181406Z 21018KT 28/18 A2991 RMK A01 T02820175  RH  052%=      5-min Rain = 0
KPD4 181407Z 21020KT 28/17 A2991 RMK A01 T02830174  RH  051%=      5-min Rain = 0
KPD4 181408Z 21019KT 28/17 A2991 RMK A01 T02820174  RH  052%=      5-min Rain = 0
KPD4 181409Z 20018G23KT 28/17 A2991 RMK A01 T02820174  RH  052%=      5-min Rain = 0
KPD4 181410Z 21020KT 28/18 A2991 RMK A01 T02830175  RH  052%=      5-min Rain = 0
KPD4 181411Z 20020KT 28/18 A2991 RMK A01 T02830175  RH  052%=      5-min Rain = 0
KPD4 181412Z 20020G25KT 28/17 A2991 RMK A01 T02820173  RH  052%=      5-min Rain = 0
KPD4 181413Z 20017KT 28/17 A2991 RMK A01 T02830174  RH  052%=      5-min Rain = 0
KPD4 181414Z 20018KT 28/18 A2991 RMK A01 T02830175  RH  052%=      5-min Rain = 0
KPD4 181415Z 20018KT 28/17 A2991 RMK A01 T02830174  RH  052%=      5-min Rain = 0
KPD4 181416Z 20019KT 28/18 A2991 RMK A01 T02830175  RH  052%=      5-min Rain = 0
KPD4 181417Z 20018G23KT 28/18 A2991 RMK A01 T02830175  RH  052%=      5-min Rain = 0
KPD4 181418Z 20015KT 28/18 A2991 RMK A01 T02830176  RH  052%=      5-min Rain = 0
KPD4 181419Z 21016KT 28/18 A2991 RMK A01 T02840177  RH  052%=      5-min Rain = 0
KPD4 181420Z 21018G23KT 29/18 A2991 RMK A01 T02850175  RH  051%=      5-min Rain = 0
KPD4 181421Z 21017KT 29/18 A2991 RMK A01 T02860176  RH  051%=      5-min Rain = 0
KPD4 181422Z 20021KT 29/18 A2991 RMK A01 T02870175  RH  051%=      5-min Rain = 0
KPD4 181423Z 21018KT 29/18 A2991 RMK A01 T02870175  RH  051%=      5-min Rain = 0
KPD4 181424Z 20019KT 29/18 A2991 RMK A01 T02870176  RH  051%=      5-min Rain = 0
KPD4 181425Z 21020KT 29/17 A2991 RMK A01 T02870174  RH  050%=      5-min Rain = 0
KPD4 181426Z 20021KT 29/17 A2991 RMK A01 T02870174  RH  051%=      5-min Rain = 0
KPD4 181427Z 21019KT 29/18 A2991 RMK A01 T02860175  RH  051%=      5-min Rain = 0
KPD4 181428Z 21018G23KT 29/18 A2991 RMK A01 T02860175  RH  051%=      5-min Rain = 0
KPD4 181429Z 20017KT 29/18 A2991 RMK A01 T02870177  RH  051%=      5-min Rain = 0
KPD4 181430Z 21017KT 29/18 A2991 RMK A01 T02890176  RH  051%=      5-min Rain = 0
KPD4 181431Z 20014G19KT 29/18 A2991 RMK A01 T02900177  RH  051%=      5-min Rain = 0
KPD4 181432Z 19021KT 29/18 A2991 RMK A01 T02910177  RH  050%=      5-min Rain = 0
KPD4 181433Z 20020KT 29/18 A2991 RMK A01 T02910175  RH  050%=      5-min Rain = 0
KPD4 181434Z 20020KT 29/18 A2991 RMK A01 T02890175  RH  050%=      5-min Rain = 0
KPD4 181435Z 21018G23KT 29/18 A2991 RMK A01 T02890176  RH  050%=      5-min Rain = 0
KPD4 181436Z 21020KT 29/18 A2991 RMK A01 T02890175  RH  050%=      5-min Rain = 0
KPD4 181437Z 21018KT 29/18 A2991 RMK A01 T02890176  RH  051%=      5-min Rain = 0
KPD4 181438Z 21016KT 29/18 A2991 RMK A01 T02890176  RH  050%=      5-min Rain = 0
KPD4 181439Z 20020KT 29/18 A2991 RMK A01 T02910177  RH  050%=      5-min Rain = 0
KPD4 181440Z 21019KT 29/18 A2991 RMK A01 T02920176  RH  050%=      5-min Rain = 0
KPD4 181441Z 21017KT 29/18 A2991 RMK A01 T02920176  RH  050%=      5-min Rain = 0
KPD4 181442Z 21017KT 29/18 A2991 RMK A01 T02920177  RH  050%=      5-min Rain = 0
KPD4 181443Z 21016G21KT 29/18 A2991 RMK A01 T02920176  RH  050%=      5-min Rain = 0
KPD4 181444Z 21018KT 29/18 A2991 RMK A01 T02920176  RH  050%=      5-min Rain = 0
KPD4 181445Z 20019KT 29/18 A2991 RMK A01 T02930176  RH  049%=      5-min Rain = 0
KPD4 181446Z 20020KT 29/18 A2991 RMK A01 T02930176  RH  049%=      5-min Rain = 0
KPD4 181447Z 20019KT 29/18 A2991 RMK A01 T02930175  RH  049%=      5-min Rain = 0
KPD4 181448Z 20017KT 29/18 A2991 RMK A01 T02940176  RH  049%=      5-min Rain = 0
KPD4 181449Z 21017KT 30/18 A2991 RMK A01 T02950176  RH  049%=      5-min Rain = 0
KPD4 181450Z 20014KT 30/18 A2991 RMK A01 T02960178  RH  049%=      5-min Rain = 0
KPD4 181451Z 21016KT 30/18 A2991 RMK A01 T02980176  RH  048%=      5-min Rain = 0
KPD4 181452Z 20016KT 30/18 A2991 RMK A01 T02990177  RH  048%=      5-min Rain = 0
KPD4 181453Z 21017KT 30/18 A2991 RMK A01 T02990175  RH  047%=      5-min Rain = 0
KPD4 181454Z 20016KT 30/18 A2991 RMK A01 T02990176  RH  048%=      5-min Rain = 0
KPD4 181455Z 20019KT 30/18 A2991 RMK A01 T02990175  RH  047%=      5-min Rain = 0
KPD4 181456Z 20019G24KT 30/18 A2991 RMK A01 T03000175  RH  047%=      5-min Rain = 0
KPD4 181457Z 21015KT 30/18 A2991 RMK A01 T03000176  RH  047%=      5-min Rain = 0
KPD4 181458Z 20017KT 30/18 A2991 RMK A01 T03020175  RH  047%=      5-min Rain = 0
KPD4 181459Z 20018KT 30/18 A2991 RMK A01 T03020175  RH  046%=      5-min Rain = 0
KPD4 181500Z 20018KT 30/18 A2991 RMK A01 T03020175  RH  047%=      5-min Rain = 0
KPD4 181501Z 20020KT 30/18 A2991 RMK A01 T03020175  RH  047%=      5-min Rain = 0
KPD4 181502Z 20019G24KT 30/17 A2991 RMK A01 T03020172  RH  046%=      5-min Rain = 0
KPD4 181503Z 20020KT 30/17 A2991 RMK A01 T03020171  RH  045%=      5-min Rain = 0
KPD4 181504Z 21020KT 30/17 A2991 RMK A01 T03020172  RH  046%=      5-min Rain = 0
KPD4 181505Z 21017KT 30/17 A2991 RMK A01 T03020173  RH  046%=      5-min Rain = 0
KPD4 181506Z 21016KT 30/17 A2991 RMK A01 T03030173  RH  046%=      5-min Rain = 0
KPD4 181507Z 20017KT 30/18 A2991 RMK A01 T03040175  RH  046%=      5-min Rain = 0
KPD4 181508Z 20016KT 31/18 A2991 RMK A01 T03060177  RH  046%=      5-min Rain = 0
KPD4 181509Z 20018KT 31/17 A2991 RMK A01 T03070174  RH  045%=      5-min Rain = 0
KPD4 181510Z 21019KT 31/17 A2991 RMK A01 T03070173  RH  045%=      5-min Rain = 0
KPD4 181511Z 22017KT 31/17 A2991 RMK A01 T03070174  RH  045%=      5-min Rain = 0
KPD4 181512Z 21015KT 31/18 A2991 RMK A01 T03080176  RH  045%=      5-min Rain = 0
KPD4 181513Z 19017KT 31/18 A2991 RMK A01 T03100177  RH  045%=      5-min Rain = 0
KPD4 181514Z 20019KT 31/18 A299 RMK A01 T03110175  RH  044%=      5-min Rain = 0
KPD4 181515Z 20020KT 31/17 A299 RMK A01 T03100173  RH  044%=      5-min Rain = 0
KPD4 181516Z 21016KT 31/17 A299 RMK A01 T03080174  RH  045%=      5-min Rain = 0
KPD4 181517Z 20018KT 31/18 A299 RMK A01 T03080175  RH  045%=      5-min Rain = 0
KPD4 181518Z 20018KT 31/17 A299 RMK A01 T03080174  RH  045%=      5-min Rain = 0
KPD4 181519Z 20018KT 31/17 A299 RMK A01 T03080173  RH  044%=      5-min Rain = 0
KPD4 181520Z 20018KT 31/17 A299 RMK A01 T03080173  RH  044%=      5-min Rain = 0
KPD4 181521Z 19018KT 31/17 A299 RMK A01 T03080173  RH  044%=      5-min Rain = 0
KPD4 181522Z 20017KT 31/17 A299 RMK A01 T03090174  RH  044%=      5-min Rain = 0
KPD4 181523Z 20016KT 31/18 A2991 RMK A01 T03110176  RH  044%=      5-min Rain = 0
KPD4 181524Z 20018KT 31/17 A299 RMK A01 T03130174  RH  043%=      5-min Rain = 0
KPD4 181525Z 20016KT 31/17 A299 RMK A01 T03130174  RH  043%=      5-min Rain = 0
KPD4 181526Z 20015G21KT 31/18 A2991 RMK A01 T03130177  RH  044%=      5-min Rain = 0
KPD4 181527Z 21017KT 31/17 A299 RMK A01 T03140174  RH  043%=      5-min Rain = 0
KPD4 181528Z 19018KT 31/17 A299 RMK A01 T03130174  RH  043%=      5-min Rain = 0
KPD4 181529Z 19017KT 31/17 A299 RMK A01 T03140174  RH  043%=      5-min Rain = 0
KPD4 181530Z 21018KT 31/17 A299 RMK A01 T03140173  RH  043%=      5-min Rain = 0
KPD4 181531Z 22016KT 31/17 A299 RMK A01 T03130174  RH  043%=      5-min Rain = 0
KPD4 181532Z 22016KT 32/17 A299 RMK A01 T03160174  RH  043%=      5-min Rain = 0
KPD4 181533Z 20017KT 32/17 A299 RMK A01 T03170173  RH  042%=      5-min Rain = 0
KPD4 181534Z 22017KT 32/17 A299 RMK A01 T03170174  RH  042%=      5-min Rain = 0
KPD4 181535Z 21016G21KT 32/18 A299 RMK A01 T03180176  RH  042%=      5-min Rain = 0
KPD4 181536Z 20016KT 32/18 A299 RMK A01 T03190175  RH  042%=      5-min Rain = 0
KPD4 181537Z 21013KT 32/18 A299 RMK A01 T03200178  RH  043%=      5-min Rain = 0
KPD4 181538Z 21015G22KT 32/18 A299 RMK A01 T03220178  RH  042%=      5-min Rain = 0
KPD4 181539Z 21020KT 32/17 A299 RMK A01 T03220174  RH  041%=      5-min Rain = 0
KPD4 181540Z 20016KT 32/18 A299 RMK A01 T03200175  RH  042%=      5-min Rain = 0
KPD4 181541Z 20016KT 32/18 A299 RMK A01 T03200175  RH  042%=      5-min Rain = 0
KPD4 181542Z 20019KT 32/18 A299 RMK A01 T03210175  RH  042%=      5-min Rain = 0
KPD4 181543Z 20017KT 32/17 A299 RMK A01 T03210173  RH  041%=      5-min Rain = 0
KPD4 181544Z 20016KT 32/18 A299 RMK A01 T03200175  RH  042%=      5-min Rain = 0
KPD4 181545Z 22015KT 32/18 A299 RMK A01 T03210176  RH  042%=      5-min Rain = 0
KPD4 181546Z 20019KT 32/17 A299 RMK A01 T03240174  RH  041%=      5-min Rain = 0
KPD4 181547Z 20017G22KT 32/17 A299 RMK A01 T03240174  RH  041%=      5-min Rain = 0
KPD4 181548Z 20020KT 32/17 A299 RMK A01 T03240170  RH  040%=      5-min Rain = 0
KPD4 181549Z 21019G24KT 32/17 A299 RMK A01 T03240170  RH  040%=      5-min Rain = 0
KPD4 181550Z 21017KT 32/17 A299 RMK A01 T03240170  RH  040%=      5-min Rain = 0
KPD4 181551Z 22017KT 32/17 A299 RMK A01 T03240172  RH  040%=      5-min Rain = 0
KPD4 181552Z 22019KT 33/17 A299 RMK A01 T03250173  RH  040%=      5-min Rain = 0
KPD4 181553Z 22017KT 33/17 A299 RMK A01 T03250173  RH  040%=      5-min Rain = 0
KPD4 181554Z 21017G23KT 33/17 A299 RMK A01 T03250173  RH  040%=      5-min Rain = 0
KPD4 181555Z 21019G24KT 33/17 A299 RMK A01 T03260170  RH  039%=      5-min Rain = 0
KPD4 181556Z 21021KT 33/17 A299 RMK A01 T03260169  RH  039%=      5-min Rain = 0
KPD4 181557Z 20022KT 33/17 A299 RMK A01 T03260168  RH  039%=      5-min Rain = 0
KPD4 181558Z 20021KT 33/17 A299 RMK A01 T03250167  RH  039%=      5-min Rain = 0
KPD4 181559Z 20020G27KT 32/17 A299 RMK A01 T03220167  RH  039%=      5-min Rain = 0
KPD4 181600Z 21022G28KT 32/17 A299 RMK A01 T03220166  RH  039%=      5-min Rain = 0
KPD4 181601Z 20022KT 32/17 A299 RMK A01 T03220166  RH  039%=      5-min Rain = 0
KPD4 181602Z 20021KT 32/17 A299 RMK A01 T03210167  RH  040%=      5-min Rain = 0
KPD4 181603Z 21018KT 32/17 A299 RMK A01 T03210167  RH  040%=      5-min Rain = 0
KPD4 181604Z 20018KT 32/17 A299 RMK A01 T03220169  RH  040%=      5-min Rain = 0
KPD4 181605Z 21016KT 32/17 A299 RMK A01 T03230170  RH  040%=      5-min Rain = 0
KPD4 181606Z 22015KT 33/17 A299 RMK A01 T03260172  RH  040%=      5-min Rain = 0
KPD4 181607Z 22019KT 33/17 A299 RMK A01 T03290172  RH  039%=      5-min Rain = 0
KPD4 181608Z 22022KT 33/17 A299 RMK A01 T03280167  RH  038%=      5-min Rain = 0
KPD4 181609Z 22022KT 33/17 A299 RMK A01 T03260166  RH  038%=      5-min Rain = 0
KPD4 181610Z 22020KT 33/17 A299 RMK A01 T03250168  RH  039%=      5-min Rain = 0
KPD4 181611Z 22018KT 33/17 A299 RMK A01 T03250168  RH  039%=      5-min Rain = 0
KPD4 181612Z 21017G22KT 33/17 A299 RMK A01 T03250170  RH  040%=      5-min Rain = 0
KPD4 181613Z 20020KT 33/17 A2989 RMK A01 T03260169  RH  039%=      5-min Rain = 0
KPD4 181614Z 21020KT 33/17 A2989 RMK A01 T03250169  RH  039%=      5-min Rain = 0
KPD4 181615Z 21022KT 32/17 A2989 RMK A01 T03240169  RH  040%=      5-min Rain = 0
KPD4 181616Z 22021G26KT 33/17 A2989 RMK A01 T03250167  RH  039%=      5-min Rain = 0
KPD4 181617Z 21022KT 33/17 A2989 RMK A01 T03260168  RH  039%=      5-min Rain = 0
KPD4 181618Z 22019KT 33/17 A2989 RMK A01 T03270166  RH  038%=      5-min Rain = 0
KPD4 181619Z 23019G24KT 33/17 A2989 RMK A01 T03280168  RH  038%=      5-min Rain = 0
KPD4 181620Z 22019KT 33/17 A2989 RMK A01 T03290168  RH  038%=      5-min Rain = 0
KPD4 181621Z 22017KT 33/17 A2989 RMK A01 T03280167  RH  038%=      5-min Rain = 0
KPD4 181622Z 21015KT 33/17 A2989 RMK A01 T03270170  RH  039%=      5-min Rain = 0
KPD4 181623Z 19015KT 33/18 A299 RMK A01 T03290178  RH  041%=      5-min Rain = 0
KPD4 181624Z 20013KT 33/18 A299 RMK A01 T03300179  RH  041%=      5-min Rain = 0
KPD4 181625Z 19017G22KT 33/18 A2989 RMK A01 T03300178  RH  040%=      5-min Rain = 0
KPD4 181626Z 21015KT 33/18 A299 RMK A01 T03300179  RH  041%=      5-min Rain = 0
KPD4 181627Z 22015KT 33/18 A299 RMK A01 T03300176  RH  040%=      5-min Rain = 0
KPD4 181628Z 21015KT 33/18 A299 RMK A01 T03300180  RH  041%=      5-min Rain = 0
KPD4 181629Z 20018KT 33/18 A299 RMK A01 T03310177  RH  040%=      5-min Rain = 0
KPD4 181630Z 20017KT 33/18 A299 RMK A01 T03300175  RH  040%=      5-min Rain = 0
KPD4 181631Z 21019KT 33/18 A299 RMK A01 T03290176  RH  040%=      5-min Rain = 0
KPD4 181632Z 21019KT 33/17 A299 RMK A01 T03300173  RH  039%=      5-min Rain = 0
KPD4 181633Z 21017G23KT 33/18 A299 RMK A01 T03300175  RH  040%=      5-min Rain = 0
KPD4 181634Z 21016G21KT 33/17 A299 RMK A01 T03310174  RH  039%=      5-min Rain = 0
KPD4 181635Z 19016KT 33/18 A299 RMK A01 T03320177  RH  040%=      5-min Rain = 0
KPD4 181636Z 21016KT 33/18 A299 RMK A01 T03320177  RH  040%=      5-min Rain = 0
KPD4 181637Z 20015G23KT 33/18 A299 RMK A01 T03330179  RH  040%=      5-min Rain = 0
KPD4 181638Z 20021KT 34/18 A299 RMK A01 T03370176  RH  039%=      5-min Rain = 0
KPD4 181639Z 21018KT 33/17 A299 RMK A01 T03340173  RH  038%=      5-min Rain = 0
KPD4 181640Z 22018KT 33/17 A299 RMK A01 T03320173  RH  039%=      5-min Rain = 0
KPD4 181641Z 21015KT 33/18 A299 RMK A01 T03330175  RH  039%=      5-min Rain = 0
KPD4 181642Z 18015KT 34/18 A299 RMK A01 T03350177  RH  039%=      5-min Rain = 0
KPD4 181643Z 20015KT 34/18 A2989 RMK A01 T03360176  RH  039%=      5-min Rain = 0
KPD4 181644Z 21018G23KT 34/18 A2989 RMK A01 T03360176  RH  039%=      5-min Rain = 0
KPD4 181645Z 20015KT 34/18 A2989 RMK A01 T03380178  RH  039%=      5-min Rain = 0
KPD4 181646Z 20020KT 34/18 A2989 RMK A01 T03390176  RH  038%=      5-min Rain = 0
KPD4 181647Z 20020KT 34/17 A2989 RMK A01 T03370172  RH  038%=      5-min Rain = 0
KPD4 181648Z 21018KT 33/17 A2989 RMK A01 T03340173  RH  038%=      5-min Rain = 0
KPD4 181649Z 21021KT 33/17 A2989 RMK A01 T03340172  RH  038%=      5-min Rain = 0
KPD4 181650Z 20020KT 33/17 A2989 RMK A01 T03330172  RH  038%=      5-min Rain = 0
KPD4 181651Z 20017KT 33/17 A2989 RMK A01 T03310171  RH  039%=      5-min Rain = 0
KPD4 181652Z 21018KT 33/17 A2989 RMK A01 T03320173  RH  039%=      5-min Rain = 0
KPD4 181653Z 20020KT 33/17 A2989 RMK A01 T03340171  RH  038%=      5-min Rain = 0
KPD4 181654Z 21017KT 33/17 A2989 RMK A01 T03330169  RH  038%=      5-min Rain = 0
KPD4 181655Z 21015KT 33/17 A2989 RMK A01 T03320172  RH  038%=      5-min Rain = 0
KPD4 181656Z 20015KT 34/17 A2989 RMK A01 T03350174  RH  038%=      5-min Rain = 0
KPD4 181657Z 19015KT 34/18 A2989 RMK A01 T03380176  RH  038%=      5-min Rain = 0
KPD4 181658Z 20021KT 34/17 A2989 RMK A01 T03400173  RH  037%=      5-min Rain = 0
KPD4 181659Z 21019KT 34/17 A2989 RMK A01 T03390171  RH  037%=      5-min Rain = 0
KPD4 181700Z 21019KT 34/17 A2989 RMK A01 T03390171  RH  037%=      5-min Rain = 0
KPD4 181701Z 21015G20KT 34/17 A2989 RMK A01 T03370168  RH  037%=      5-min Rain = 0
KPD4 181702Z 20015KT 34/18 A2989 RMK A01 T03380175  RH  038%=      5-min Rain = 0
KPD4 181703Z 20018KT 34/17 A2989 RMK A01 T03410174  RH  037%=      5-min Rain = 0
KPD4 181704Z 20018G23KT 34/17 A2989 RMK A01 T03420173  RH  037%=      5-min Rain = 0
KPD4 181705Z 19017KT 34/17 A2989 RMK A01 T03420173  RH  037%=      5-min Rain = 0
KPD4 181706Z 20016KT 34/17 A2989 RMK A01 T03420173  RH  037%=      5-min Rain = 0
KPD4 181707Z 19015KT 34/17 A2989 RMK A01 T03420173  RH  037%=      5-min Rain = 0
KPD4 181708Z 21016KT 34/17 A2989 RMK A01 T03410172  RH  037%=      5-min Rain = 0
KPD4 181709Z 21017KT 34/17 A2989 RMK A01 T03410174  RH  037%=      5-min Rain = 0
KPD4 181710Z 20020KT 34/17 A2989 RMK A01 T03430171  RH  036%=      5-min Rain = 0
KPD4 181711Z 20019KT 34/17 A2989 RMK A01 T03420169  RH  036%=      5-min Rain = 0
KPD4 181712Z 21017G22KT 34/17 A2989 RMK A01 T03400169  RH  036%=      5-min Rain = 0
KPD4 181713Z 21015G20KT 34/17 A2989 RMK A01 T03390173  RH  037%=      5-min Rain = 0
KPD4 181714Z 21019G24KT 34/17 A2989 RMK A01 T03420172  RH  036%=      5-min Rain = 0
KPD4 181715Z 20020KT 34/17 A2989 RMK A01 T03400170  RH  036%=      5-min Rain = 0
KPD4 181716Z 20016KT 34/17 A2989 RMK A01 T03370169  RH  037%=      5-min Rain = 0
KPD4 181717Z 19015KT 34/17 A2989 RMK A01 T03360171  RH  038%=      5-min Rain = 0
KPD4 181718Z 19016KT 34/17 A2989 RMK A01 T03370169  RH  037%=      5-min Rain = 0
KPD4 181719Z 20016G21KT 34/17 A2989 RMK A01 T03360169  RH  037%=      5-min Rain = 0
KPD4 181720Z 19016KT 34/17 A2989 RMK A01 T03360172  RH  038%=      5-min Rain = 0
KPD4 181721Z 21017KT 34/18 A2988 RMK A01 T03390175  RH  038%=      5-min Rain = 0
KPD4 181722Z 20014KT 34/18 A2988 RMK A01 T03430176  RH  037%=      5-min Rain = 0
KPD4 181723Z 20017KT 35/18 A2988 RMK A01 T03470176  RH  036%=      5-min Rain = 0
KPD4 181724Z 19018KT 35/17 A2989 RMK A01 T03480173  RH  035%=      5-min Rain = 0
KPD4 181725Z 18015G21KT 35/18 A2989 RMK A01 T03450175  RH  036%=      5-min Rain = 0
KPD4 181726Z 18018KT 35/18 A2988 RMK A01 T03450175  RH  036%=      5-min Rain = 0
KPD4 181727Z 18016KT 35/18 A2988 RMK A01 T03450175  RH  036%=      5-min Rain = 0
KPD4 181728Z 19015KT 34/18 A2988 RMK A01 T03440175  RH  037%=      5-min Rain = 0
KPD4 181729Z 19019KT 35/18 A2988 RMK A01 T03450175  RH  036%=      5-min Rain = 0
KPD4 181730Z 19017KT 35/17 A2988 RMK A01 T03450173  RH  036%=      5-min Rain = 0
KPD4 181731Z 19018KT 35/17 A2988 RMK A01 T03450172  RH  036%=      5-min Rain = 0
KPD4 181732Z 19015G21KT 35/17 A2988 RMK A01 T03450173  RH  036%=      5-min Rain = 0
KPD4 181733Z 19017G23KT 35/17 A2988 RMK A01 T03470174  RH  036%=      5-min Rain = 0
KPD4 181734Z 20015KT 35/17 A2988 RMK A01 T03490173  RH  035%=      5-min Rain = 0
KPD4 181735Z 18017KT 35/17 A2988 RMK A01 T03490173  RH  035%=      5-min Rain = 0
KPD4 181736Z 18018G23KT 35/17 A2988 RMK A01 T03470172  RH  035%=      5-min Rain = 0
KPD4 181737Z 18020G25KT 35/17 A2988 RMK A01 T03480171  RH  035%=      5-min Rain = 0
KPD4 181738Z 18020KT 35/17 A2988 RMK A01 T03490171  RH  035%=      5-min Rain = 0
KPD4 181739Z 19022KT 35/17 A2988 RMK A01 T03480166  RH  034%=      5-min Rain = 0
KPD4 181740Z 19019KT 35/17 A2988 RMK A01 T03470169  RH  035%=      5-min Rain = 0
KPD4 181741Z 18020KT 35/17 A2988 RMK A01 T03480169  RH  035%=      5-min Rain = 0
KPD4 181742Z 19022KT 35/17 A2988 RMK A01 T03490169  RH  034%=      5-min Rain = 0
KPD4 181743Z 19021KT 35/17 A2988 RMK A01 T03490169  RH  034%=      5-min Rain = 0
KPD4 181744Z 18019KT 35/17 A2988 RMK A01 T03490166  RH  034%=      5-min Rain = 0
KPD4 181745Z 18020G25KT 35/17 A2988 RMK A01 T03500165  RH  033%=      5-min Rain = 0
KPD4 181746Z 18019KT 35/16 A2988 RMK A01 T03490163  RH  033%=      5-min Rain = 0
KPD4 181747Z 19019KT 35/17 A2988 RMK A01 T03510165  RH  033%=      5-min Rain = 0
KPD4 181748Z 20016KT 35/16 A2988 RMK A01 T03520163  RH  033%=      5-min Rain = 0
KPD4 181749Z 19020KT 35/16 A2988 RMK A01 T03520161  RH  032%=      5-min Rain = 0
KPD4 181750Z 19019KT 35/16 A2988 RMK A01 T03510160  RH  032%=      5-min Rain = 0
KPD4 181751Z 19017KT 35/16 A2988 RMK A01 T03510161  RH  032%=      5-min Rain = 0
KPD4 181752Z 19016KT 35/16 A2988 RMK A01 T03520160  RH  032%=      5-min Rain = 0
KPD4 181753Z 20019KT 35/16 A2988 RMK A01 T03530161  RH  032%=      5-min Rain = 0
KPD4 181754Z 19020KT 36/16 A2988 RMK A01 T03550158  RH  031%=      5-min Rain = 0
KPD4 181755Z 19016KT 36/16 A2988 RMK A01 T03550161  RH  032%=      5-min Rain = 0
KPD4 181756Z 20016KT 36/17 A2988 RMK A01 T03600165  RH  032%=      5-min Rain = 0
KPD4 181757Z 19020KT 36/16 A2987 RMK A01 T03600162  RH  031%=      5-min Rain = 0
KPD4 181758Z 19019KT 36/15 A2988 RMK A01 T03580154  RH  030%=      5-min Rain = 0
KPD4 181759Z 19015G21KT 36/16 A2988 RMK A01 T03560158  RH  031%=      5-min Rain = 0
KPD4 181800Z 20018G23KT 36/16 A2988 RMK A01 T03590158  RH  030%=      5-min Rain = 0
KPD4 181801Z 19019G24KT 36/16 A2987 RMK A01 T03600158  RH  030%=      5-min Rain = 0
KPD4 181802Z 19019KT 36/15 A2987 RMK A01 T03620154  RH  029%=      5-min Rain = 0
KPD4 181803Z 18019G25KT 36/15 A2987 RMK A01 T03590153  RH  029%=      5-min Rain = 0
KPD4 181804Z 19020KT 36/16 A2987 RMK A01 T03560156  RH  030%=      5-min Rain = 0
KPD4 181805Z 19018G23KT 35/16 A2987 RMK A01 T03540156  RH  031%=      5-min Rain = 0
KPD4 181806Z 19019KT 35/16 A2987 RMK A01 T03530157  RH  031%=      5-min Rain = 0
KPD4 181807Z 20016KT 35/16 A2987 RMK A01 T03520158  RH  032%=      5-min Rain = 0
KPD4 181808Z 20019G24KT 36/16 A2987 RMK A01 T03560157  RH  031%=      5-min Rain = 0
KPD4 181809Z 21021KT 36/15 A2987 RMK A01 T03570154  RH  030%=      5-min Rain = 0
KPD4 181810Z 20019KT 36/15 A2987 RMK A01 T03550153  RH  030%=      5-min Rain = 0
KPD4 181811Z 21017KT 35/16 A2987 RMK A01 T03530155  RH  031%=      5-min Rain = 0
KPD4 181812Z 20020KT 35/15 A2987 RMK A01 T03510154  RH  031%=      5-min Rain = 0
KPD4 181813Z 20019KT 35/16 A2987 RMK A01 T03480155  RH  032%=      5-min Rain = 0
KPD4 181814Z 20019KT 35/16 A2987 RMK A01 T03480157  RH  032%=      5-min Rain = 0
KPD4 181815Z 20019KT 35/16 A2987 RMK A01 T03500157  RH  032%=      5-min Rain = 0
KPD4 181816Z 20020KT 35/16 A2987 RMK A01 T03520157  RH  031%=      5-min Rain = 0
KPD4 181817Z 19018KT 35/16 A2987 RMK A01 T03530159  RH  032%=      5-min Rain = 0
KPD4 181818Z 19017KT 36/16 A2987 RMK A01 T03560161  RH  031%=      5-min Rain = 0
KPD4 181819Z 18015KT 36/17 A2988 RMK A01 T03610166  RH  032%=      5-min Rain = 0
KPD4 181820Z 18016KT 37/17 A2987 RMK A01 T03650166  RH  031%=      5-min Rain = 0
KPD4 181821Z 20016KT 37/16 A2988 RMK A01 T03660163  RH  030%=      5-min Rain = 0
KPD4 181822Z 20016KT 37/16 A2987 RMK A01 T03660164  RH  030%=      5-min Rain = 0
KPD4 181823Z 20019KT 36/16 A2987 RMK A01 T03640162  RH  030%=      5-min Rain = 0
KPD4 181824Z 19017KT 36/16 A2987 RMK A01 T03620160  RH  030%=      5-min Rain = 0
KPD4 181825Z 19016KT 36/16 A2987 RMK A01 T03610164  RH  031%=      5-min Rain = 0
KPD4 181826Z 19015KT 36/17 A2987 RMK A01 T03640165  RH  031%=      5-min Rain = 0
KPD4 181827Z 20014KT 37/17 A2987 RMK A01 T03680169  RH  031%=      5-min Rain = 0
KPD4 181828Z 20019KT 37/17 A2987 RMK A01 T03720167  RH  030%=      5-min Rain = 0
KPD4 181829Z 20015KT 37/16 A2987 RMK A01 T03690164  RH  030%=      5-min Rain = 0
KPD4 181830Z 20015KT 37/16 A2987 RMK A01 T03670163  RH  030%=      5-min Rain = 0
KPD4 181831Z 20016G21KT 37/17 A2987 RMK A01 T03660165  RH  030%=      5-min Rain = 0
KPD4 181832Z 18017KT 37/17 A2987 RMK A01 T03700168  RH  031%=      5-min Rain = 0
KPD4 181833Z 18018KT 37/16 A2987 RMK A01 T03720164  RH  029%=      5-min Rain = 0
KPD4 181834Z 19016KT 37/16 A2987 RMK A01 T03700164  RH  030%=      5-min Rain = 0
KPD4 181835Z 19017KT 37/16 A2987 RMK A01 T03700164  RH  030%=      5-min Rain = 0
KPD4 181836Z 19016KT 37/17 A2987 RMK A01 T03680165  RH  030%=      5-min Rain = 0
KPD4 181837Z 18015G20KT 37/17 A2987 RMK A01 T03670167  RH  031%=      5-min Rain = 0
KPD4 181838Z 18017KT 37/17 A2987 RMK A01 T03690169  RH  031%=      5-min Rain = 0
KPD4 181839Z 20016G21KT 37/17 A2987 RMK A01 T03690166  RH  030%=      5-min Rain = 0
KPD4 181840Z 18014KT 37/17 A2987 RMK A01 T03660168  RH  031%=      5-min Rain = 0
KPD4 181841Z 19016KT 37/17 A2987 RMK A01 T03670169  RH  031%=      5-min Rain = 0
KPD4 181842Z 19016KT 37/17 A2987 RMK A01 T03670168  RH  031%=      5-min Rain = 0
KPD4 181843Z 19014KT 37/17 A2987 RMK A01 T03660170  RH  031%=      5-min Rain = 0
KPD4 181844Z 18015KT 37/17 A2987 RMK A01 T03660168  RH  031%=      5-min Rain = 0
KPD4 181845Z 17016KT 37/17 A2987 RMK A01 T03660170  RH  032%=      5-min Rain = 0
KPD4 181846Z 17015KT 37/17 A2987 RMK A01 T03660170  RH  031%=      5-min Rain = 0
KPD4 181847Z 18015KT 37/17 A2987 RMK A01 T03650169  RH  031%=      5-min Rain = 0
KPD4 181848Z 17018KT 36/17 A2987 RMK A01 T03630169  RH  032%=      5-min Rain = 0
KPD4 181849Z 18016KT 36/17 A2987 RMK A01 T03620171  RH  032%=      5-min Rain = 0
KPD4 181850Z 18011KT 36/17 A2986 RMK A01 T03620172  RH  033%=      5-min Rain = 0
KPD4 181851Z 18012KT 36/17 A2986 RMK A01 T03640173  RH  032%=      5-min Rain = 0
KPD4 181852Z 18015KT 37/17 A2986 RMK A01 T03660173  RH  032%=      5-min Rain = 0
KPD4 181853Z 19018G24KT 37/17 A2986 RMK A01 T03680170  RH  031%=      5-min Rain = 0
KPD4 181854Z 19018KT 37/17 A2986 RMK A01 T03680167  RH  031%=      5-min Rain = 0
KPD4 181855Z 19016KT 37/17 A2986 RMK A01 T03660166  RH  031%=      5-min Rain = 0
KPD4 181856Z 18015KT 36/17 A2986 RMK A01 T03640167  RH  031%=      5-min Rain = 0
KPD4 181857Z 20011KT 36/17 A2986 RMK A01 T03610167  RH  032%=      5-min Rain = 0
KPD4 181858Z 19012G19KT 36/17 A2986 RMK A01 T03610170  RH  032%=      5-min Rain = 0
KPD4 181859Z 18018KT 36/17 A2986 RMK A01 T03640169  RH  032%=      5-min Rain = 0
KPD4 181900Z 18015KT 36/17 A2986 RMK A01 T03640168  RH  031%=      5-min Rain = 0
KPD4 181901Z 18012KT 36/17 A2986 RMK A01 T03640168  RH  032%=      5-min Rain = 0
KPD4 181902Z 18015KT 36/17 A2986 RMK A01 T03640170  RH  032%=      5-min Rain = 0
KPD4 181903Z 17016G21KT 37/17 A2986 RMK A01 T03670165  RH  030%=      5-min Rain = 0
KPD4 181904Z 17014KT 37/17 A2986 RMK A01 T03660168  RH  031%=      5-min Rain = 0
KPD4 181905Z 19015KT 37/17 A2986 RMK A01 T03690167  RH  031%=      5-min Rain = 0
KPD4 181906Z 19015KT 37/17 A2986 RMK A01 T03680165  RH  030%=      5-min Rain = 0
KPD4 181907Z 19019KT 37/17 A2986 RMK A01 T03670165  RH  030%=      5-min Rain = 0
KPD4 181908Z 19018KT 37/17 A2986 RMK A01 T03690165  RH  030%=      5-min Rain = 0
KPD4 181909Z 18019KT 37/16 A2986 RMK A01 T03700164  RH  030%=      5-min Rain = 0
KPD4 181910Z 18019KT 37/17 A2986 RMK A01 T03710167  RH  030%=      5-min Rain = 0
KPD4 181911Z 18017G23KT 37/16 A2986 RMK A01 T03730164  RH  029%=      5-min Rain = 0
KPD4 181912Z 18020KT 37/17 A2986 RMK A01 T03720165  RH  029%=      5-min Rain = 0
KPD4 181913Z 18018KT 37/16 A2986 RMK A01 T03740159  RH  028%=      5-min Rain = 0
KPD4 181914Z 18015KT 37/16 A2986 RMK A01 T03720161  RH  029%=      5-min Rain = 0
KPD4 181915Z 20015KT 37/16 A2986 RMK A01 T03730162  RH  029%=      5-min Rain = 0
KPD4 181916Z 19016KT 37/16 A2986 RMK A01 T03730161  RH  029%=      5-min Rain = 0
KPD4 181917Z 18019KT 37/16 A2986 RMK A01 T03720160  RH  029%=      5-min Rain = 0
KPD4 181918Z 18019KT 37/16 A2986 RMK A01 T03720158  RH  028%=      5-min Rain = 0
KPD4 181919Z 17018G24KT 37/16 A2986 RMK A01 T03730160  RH  028%=      5-min Rain = 0
KPD4 181920Z 18020KT 38/16 A2985 RMK A01 T03750160  RH  028%=      5-min Rain = 0
KPD4 181921Z 18017KT 38/16 A2985 RMK A01 T03750160  RH  028%=      5-min Rain = 0
KPD4 181922Z 19016KT 37/16 A2986 RMK A01 T03740162  RH  029%=      5-min Rain = 0
KPD4 181923Z 18022KT 38/16 A2985 RMK A01 T03760159  RH  028%=      5-min Rain = 0
KPD4 181924Z 18018KT 38/15 A2986 RMK A01 T03770154  RH  027%=      5-min Rain = 0
KPD4 181925Z 18018KT 38/16 A2986 RMK A01 T03750156  RH  027%=      5-min Rain = 0
KPD4 181926Z 18018KT 38/16 A2985 RMK A01 T03750156  RH  027%=      5-min Rain = 0
KPD4 181927Z 21017KT 37/16 A2985 RMK A01 T03740158  RH  028%=      5-min Rain = 0
KPD4 181928Z 18018KT 37/16 A2986 RMK A01 T03740158  RH  028%=      5-min Rain = 0
KPD4 181929Z 17020KT 37/16 A2985 RMK A01 T03740156  RH  028%=      5-min Rain = 0
KPD4 181930Z 18018G24KT 38/15 A2985 RMK A01 T03750152  RH  027%=      5-min Rain = 0
KPD4 181931Z 19019KT 38/16 A2985 RMK A01 T03750155  RH  027%=      5-min Rain = 0
KPD4 181932Z 18020KT 38/16 A2985 RMK A01 T03770156  RH  027%=      5-min Rain = 0
KPD4 181933Z 18016G21KT 38/16 A2985 RMK A01 T03770155  RH  027%=      5-min Rain = 0
KPD4 181934Z 19016KT 38/16 A2985 RMK A01 T03760157  RH  028%=      5-min Rain = 0
KPD4 181935Z 18017G22KT 38/16 A2985 RMK A01 T03780159  RH  028%=      5-min Rain = 0
KPD4 181936Z 18016G21KT 38/16 A2985 RMK A01 T03800156  RH  027%=      5-min Rain = 0
KPD4 181937Z 18016KT 38/16 A2985 RMK A01 T03810161  RH  027%=      5-min Rain = 0
KPD4 181938Z 18020KT 38/15 A2985 RMK A01 T03800152  RH  026%=      5-min Rain = 0
KPD4 181939Z 16021KT 37/15 A2985 RMK A01 T03740153  RH  027%=      5-min Rain = 0
KPD4 181940Z 17021KT 37/15 A2985 RMK A01 T03730152  RH  027%=      5-min Rain = 0
KPD4 181941Z 17017G22KT 37/16 A2985 RMK A01 T03710155  RH  028%=      5-min Rain = 0
KPD4 181942Z 17016G21KT 37/16 A2985 RMK A01 T03710155  RH  028%=      5-min Rain = 0
KPD4 181943Z 17018KT 37/16 A2985 RMK A01 T03710155  RH  028%=      5-min Rain = 0
KPD4 181944Z 17015KT 37/16 A2985 RMK A01 T03710157  RH  028%=      5-min Rain = 0
KPD4 181945Z 18017KT 37/16 A2985 RMK A01 T03720158  RH  028%=      5-min Rain = 0
KPD4 181946Z 18017KT 37/16 A2985 RMK A01 T03740155  RH  027%=      5-min Rain = 0
KPD4 181947Z 18016G22KT 38/16 A2985 RMK A01 T03750160  RH  028%=      5-min Rain = 0
KPD4 181948Z 17019KT 38/16 A2985 RMK A01 T03790163  RH  028%=      5-min Rain = 0
KPD4 181949Z 17020KT 38/16 A2985 RMK A01 T03800161  RH  028%=      5-min Rain = 0
KPD4 181950Z 18020KT 38/16 A2985 RMK A01 T03790159  RH  027%=      5-min Rain = 0
KPD4 181951Z 18016KT 38/16 A2985 RMK A01 T03780156  RH  027%=      5-min Rain = 0
KPD4 181952Z 19015KT 38/16 A2985 RMK A01 T03770161  RH  028%=      5-min Rain = 0
KPD4 181953Z 20017G27KT 38/16 A2985 RMK A01 T03810158  RH  027%=      5-min Rain = 0
KPD4 181954Z 21020KT 38/16 A2985 RMK A01 T03830158  RH  027%=      5-min Rain = 0
KPD4 181955Z 20018KT 38/16 A2985 RMK A01 T03820161  RH  027%=      5-min Rain = 0
KPD4 181956Z 20022KT 38/16 A2984 RMK A01 T03820160  RH  027%=      5-min Rain = 0
KPD4 181957Z 20019KT 38/16 A2984 RMK A01 T03800160  RH  027%=      5-min Rain = 0
KPD4 181958Z 20020G26KT 38/16 A2985 RMK A01 T03800161  RH  028%=      5-min Rain = 0
KPD4 181959Z 20019KT 38/16 A2984 RMK A01 T03800160  RH  027%=      5-min Rain = 0
KPD4 182000Z 20016G21KT 38/16 A2985 RMK A01 T03780162  RH  028%=      5-min Rain = 0
KPD4 182001Z 20018G24KT 38/16 A2984 RMK A01 T03810161  RH  027%=      5-min Rain = 0
KPD4 182002Z 19023KT 38/16 A2984 RMK A01 T03810162  RH  028%=      5-min Rain = 0
KPD4 182003Z 19022KT 38/16 A2984 RMK A01 T03810162  RH  028%=      5-min Rain = 0
KPD4 182004Z 19022KT 38/16 A2985 RMK A01 T03790163  RH  028%=      5-min Rain = 0
KPD4 182005Z 20017KT 38/16 A2985 RMK A01 T03780163  RH  028%=      5-min Rain = 0
KPD4 182006Z 18014G20KT 38/17 A2985 RMK A01 T03780169  RH  029%=      5-min Rain = 0
KPD4 182007Z 19018KT 38/17 A2985 RMK A01 T03820166  RH  028%=      5-min Rain = 0
KPD4 182008Z 20016KT 38/16 A2985 RMK A01 T03820162  RH  027%=      5-min Rain = 0
KPD4 182009Z 20018KT 38/17 A2984 RMK A01 T03820166  RH  028%=      5-min Rain = 0
KPD4 182010Z 20019KT 38/16 A2984 RMK A01 T03810162  RH  028%=      5-min Rain = 0
KPD4 182011Z 20018KT 38/16 A2984 RMK A01 T03780162  RH  028%=      5-min Rain = 0
KPD4 182012Z 17018G23KT 38/16 A2984 RMK A01 T03780163  RH  028%=      5-min Rain = 0
KPD4 182013Z 19019G24KT 38/16 A2984 RMK A01 T03780161  RH  028%=      5-min Rain = 0
KPD4 182014Z 20019KT 38/16 A2984 RMK A01 T03770161  RH  028%=      5-min Rain = 0
KPD4 182015Z 19014KT 38/16 A2984 RMK A01 T03760162  RH  028%=      5-min Rain = 0
KPD4 182016Z 19016G22KT 38/17 A2984 RMK A01 T03760165  RH  029%=      5-min Rain = 0
KPD4 182017Z 19016KT 38/16 A2984 RMK A01 T03770161  RH  028%=      5-min Rain = 0
KPD4 182018Z 18018KT 38/16 A2984 RMK A01 T03760163  RH  029%=      5-min Rain = 0
KPD4 182019Z 17018KT 38/16 A2984 RMK A01 T03760159  RH  028%=      5-min Rain = 0
KPD4 182020Z 18018KT 38/16 A2984 RMK A01 T03750162  RH  028%=      5-min Rain = 0
KPD4 182021Z 17015KT 37/16 A2984 RMK A01 T03740162  RH  029%=      5-min Rain = 0
KPD4 182022Z 18018KT 37/16 A2984 RMK A01 T03740161  RH  029%=      5-min Rain = 0
KPD4 182023Z 19018KT 37/16 A2984 RMK A01 T03740158  RH  028%=      5-min Rain = 0
KPD4 182024Z 20017KT 37/16 A2984 RMK A01 T03730158  RH  028%=      5-min Rain = 0
KPD4 182025Z 19016KT 37/16 A2984 RMK A01 T03720160  RH  029%=      5-min Rain = 0
KPD4 182026Z 19016KT 37/16 A2984 RMK A01 T03730163  RH  029%=      5-min Rain = 0
KPD4 182027Z 19015KT 38/17 A2984 RMK A01 T03780167  RH  029%=      5-min Rain = 0
KPD4 182028Z 19013KT 38/16 A2984 RMK A01 T03810163  RH  028%=      5-min Rain = 0
KPD4 182029Z 18015KT 38/16 A2984 RMK A01 T03810163  RH  028%=      5-min Rain = 0
KPD4 182030Z 18017KT 38/16 A2984 RMK A01 T03800163  RH  028%=      5-min Rain = 0
KPD4 182031Z 18017KT 38/16 A2984 RMK A01 T03780161  RH  028%=      5-min Rain = 0
KPD4 182032Z 18021KT 38/16 A2984 RMK A01 T03780160  RH  028%=      5-min Rain = 0
KPD4 182033Z 17018KT 38/16 A2984 RMK A01 T03770159  RH  028%=      5-min Rain = 0
KPD4 182034Z 18017KT 38/16 A2984 RMK A01 T03770158  RH  028%=      5-min Rain = 0
KPD4 182035Z 17020KT 38/16 A2984 RMK A01 T03780157  RH  027%=      5-min Rain = 0
KPD4 182036Z 18016KT 38/16 A2984 RMK A01 T03780158  RH  027%=      5-min Rain = 0
KPD4 182037Z 17014KT 38/16 A2984 RMK A01 T03790159  RH  027%=      5-min Rain = 0
KPD4 182038Z 18017KT 38/16 A2984 RMK A01 T03820162  RH  027%=      5-min Rain = 0
KPD4 182039Z 19019G25KT 38/16 A2983 RMK A01 T03840159  RH  027%=      5-min Rain = 0
KPD4 182040Z 19019G24KT 38/16 A2983 RMK A01 T03840155  RH  026%=      5-min Rain = 0
KPD4 182041Z 19017KT 38/16 A2983 RMK A01 T03830155  RH  026%=      5-min Rain = 0
KPD4 182042Z 19020KT 38/16 A2983 RMK A01 T03820156  RH  026%=      5-min Rain = 0
KPD4 182043Z 19016KT 38/16 A2983 RMK A01 T03820156  RH  026%=      5-min Rain = 0
KPD4 182044Z 19017KT 38/16 A2983 RMK A01 T03820158  RH  027%=      5-min Rain = 0
KPD4 182045Z 18018KT 38/16 A2983 RMK A01 T03840161  RH  027%=      5-min Rain = 0
KPD4 182046Z 18019KT 39/16 A2983 RMK A01 T03850159  RH  027%=      5-min Rain = 0
KPD4 182047Z 17019KT 38/16 A2983 RMK A01 T03840161  RH  027%=      5-min Rain = 0
KPD4 182048Z 16018KT 38/16 A2983 RMK A01 T03840164  RH  027%=      5-min Rain = 0
KPD4 182049Z 15015KT 39/16 A2983 RMK A01 T03860163  RH  027%=      5-min Rain = 0
KPD4 182050Z 17014KT 39/17 A2983 RMK A01 T03880169  RH  028%=      5-min Rain = 0
KPD4 182051Z 17015KT 39/17 A2983 RMK A01 T03900165  RH  027%=      5-min Rain = 0
KPD4 182052Z 19015KT 39/17 A2983 RMK A01 T03910167  RH  027%=      5-min Rain = 0
KPD4 182053Z 19017KT 39/16 A2983 RMK A01 T03930161  RH  026%=      5-min Rain = 0
KPD4 182054Z 18020KT 39/16 A2983 RMK A01 T03910161  RH  026%=      5-min Rain = 0
KPD4 182055Z 18015G20KT 39/16 A2983 RMK A01 T03910161  RH  026%=      5-min Rain = 0
KPD4 182056Z 19018KT 39/16 A2983 RMK A01 T03910160  RH  026%=      5-min Rain = 0
KPD4 182057Z 18018KT 39/16 A2983 RMK A01 T03900157  RH  025%=      5-min Rain = 0
KPD4 182058Z 19017KT 39/16 A2983 RMK A01 T03870158  RH  026%=      5-min Rain = 0
KPD4 182059Z 19014KT 39/16 A2983 RMK A01 T03870159  RH  026%=      5-min Rain = 0
KPD4 182100Z 18017G24KT 39/16 A2983 RMK A01 T03880160  RH  026%=      5-min Rain = 0
KPD4 182101Z 18020G25KT 39/16 A2983 RMK A01 T03890158  RH  026%=      5-min Rain = 0
KPD4 182102Z 18018KT 39/16 A2983 RMK A01 T03890156  RH  025%=      5-min Rain = 0
KPD4 182103Z 17018KT 39/16 A2983 RMK A01 T03900160  RH  026%=      5-min Rain = 0
KPD4 182104Z 16017KT 39/16 A2983 RMK A01 T03900155  RH  025%=      5-min Rain = 0
KPD4 182105Z 17014KT 39/16 A2983 RMK A01 T03870160  RH  026%=      5-min Rain = 0
KPD4 182106Z 19016KT 39/16 A2982 RMK A01 T03900161  RH  026%=      5-min Rain = 0
KPD4 182107Z 18016KT 39/16 A2982 RMK A01 T03920160  RH  026%=      5-min Rain = 0
KPD4 182108Z 17017G22KT 39/16 A2982 RMK A01 T03930161  RH  026%=      5-min Rain = 0
KPD4 182109Z 19019KT 39/16 A2982 RMK A01 T03930158  RH  025%=      5-min Rain = 0
KPD4 182110Z 19018KT 39/15 A2982 RMK A01 T03920154  RH  025%=      5-min Rain = 0
KPD4 182111Z 19017KT 39/16 A2983 RMK A01 T03900155  RH  025%=      5-min Rain = 0
KPD4 182112Z 18012G17KT 39/16 A2983 RMK A01 T03920158  RH  025%=      5-min Rain = 0
KPD4 182113Z 18015KT 39/16 A2982 RMK A01 T03940159  RH  025%=      5-min Rain = 0
KPD4 182114Z 17017G22KT 40/16 A2982 RMK A01 T03970163  RH  026%=      5-min Rain = 0
KPD4 182115Z 17020KT 40/16 A2982 RMK A01 T03970155  RH  024%=      5-min Rain = 0
KPD4 182116Z 16018G23KT 39/15 A2982 RMK A01 T03910154  RH  025%=      5-min Rain = 0
KPD4 182117Z 17015KT 39/16 A2982 RMK A01 T03890155  RH  025%=      5-min Rain = 0
KPD4 182118Z 16019G24KT 39/16 A2982 RMK A01 T03890157  RH  026%=      5-min Rain = 0
KPD4 182119Z 16022KT 39/15 A2982 RMK A01 T03900153  RH  025%=      5-min Rain = 0
KPD4 182120Z 17017G24KT 39/15 A2982 RMK A01 T03890154  RH  025%=      5-min Rain = 0
KPD4 182121Z 16016G22KT 39/16 A2982 RMK A01 T03910159  RH  026%=      5-min Rain = 0
KPD4 182122Z 16018G26KT 39/16 A2982 RMK A01 T03940156  RH  025%=      5-min Rain = 0
KPD4 182123Z 17019KT 39/16 A2982 RMK A01 T03920156  RH  025%=      5-min Rain = 0
KPD4 182124Z 16016G21KT 39/16 A2982 RMK A01 T03920156  RH  025%=      5-min Rain = 0
KPD4 182125Z 17019G25KT 39/16 A2982 RMK A01 T03930156  RH  025%=      5-min Rain = 0
KPD4 182126Z 17018KT 39/15 A2982 RMK A01 T03920154  RH  025%=      5-min Rain = 0
KPD4 182127Z 17019KT 39/15 A2982 RMK A01 T03910153  RH  025%=      5-min Rain = 0
KPD4 182128Z 17019KT 39/15 A2982 RMK A01 T03900152  RH  025%=      5-min Rain = 0
KPD4 182129Z 17017KT 39/16 A2982 RMK A01 T03900155  RH  025%=      5-min Rain = 0
KPD4 182130Z 17019KT 39/16 A2982 RMK A01 T03920155  RH  025%=      5-min Rain = 0
KPD4 182131Z 17019KT 39/16 A2982 RMK A01 T03920156  RH  025%=      5-min Rain = 0
KPD4 182132Z 16018KT 39/15 A2982 RMK A01 T03910154  RH  025%=      5-min Rain = 0
KPD4 182133Z 16015G20KT 39/15 A2982 RMK A01 T03890154  RH  025%=      5-min Rain = 0
KPD4 182134Z 18017G24KT 39/16 A2982 RMK A01 T03900160  RH  026%=      5-min Rain = 0
KPD4 182135Z 19019G24KT 39/15 A2982 RMK A01 T03920153  RH  025%=      5-min Rain = 0
KPD4 182136Z 20019KT 39/15 A2982 RMK A01 T03920153  RH  025%=      5-min Rain = 0
KPD4 182137Z 20018KT 39/15 A2981 RMK A01 T03910151  RH  024%=      5-min Rain = 0
KPD4 182138Z 18019KT 39/15 A2981 RMK A01 T03880151  RH  025%=      5-min Rain = 0
KPD4 182139Z 18021KT 39/15 A2981 RMK A01 T03880151  RH  025%=      5-min Rain = 0
KPD4 182140Z 18020KT 39/15 A2982 RMK A01 T03890150  RH  025%=      5-min Rain = 0
KPD4 182141Z 19021KT 39/15 A2982 RMK A01 T03890150  RH  024%=      5-min Rain = 0
KPD4 182142Z 19018KT 39/15 A2981 RMK A01 T03890151  RH  025%=      5-min Rain = 0
KPD4 182143Z 19021KT 39/15 A2981 RMK A01 T03900153  RH  025%=      5-min Rain = 0
KPD4 182144Z 19017KT 39/15 A2981 RMK A01 T03900151  RH  024%=      5-min Rain = 0
KPD4 182145Z 20015KT 39/15 A2981 RMK A01 T03890151  RH  025%=      5-min Rain = 0
KPD4 182146Z 20017KT 39/15 A2981 RMK A01 T03890153  RH  025%=      5-min Rain = 0
KPD4 182147Z 20018KT 39/15 A2981 RMK A01 T03900150  RH  024%=      5-min Rain = 0
KPD4 182148Z 19017KT 39/15 A2981 RMK A01 T03890149  RH  024%=      5-min Rain = 0
KPD4 182149Z 18015G20KT 39/15 A2981 RMK A01 T03880150  RH  025%=      5-min Rain = 0
KPD4 182150Z 19018G24KT 39/16 A2981 RMK A01 T03870155  RH  026%=      5-min Rain = 0
KPD4 182151Z 18020KT 39/15 A2981 RMK A01 T03890154  RH  025%=      5-min Rain = 0
KPD4 182152Z 18018G23KT 39/15 A2981 RMK A01 T03880152  RH  025%=      5-min Rain = 0
KPD4 182153Z 19019KT 39/15 A2981 RMK A01 T03860153  RH  025%=      5-min Rain = 0
KPD4 182154Z 19017KT 39/16 A2981 RMK A01 T03870155  RH  026%=      5-min Rain = 0
KPD4 182155Z 18016KT 39/16 A2981 RMK A01 T03900156  RH  025%=      5-min Rain = 0
KPD4 182156Z 19013G19KT 39/16 A2981 RMK A01 T03920159  RH  025%=      5-min Rain = 0
KPD4 182157Z 18017KT 39/16 A2981 RMK A01 T03940156  RH  025%=      5-min Rain = 0
KPD4 182158Z 19018KT 39/16 A2981 RMK A01 T03930159  RH  025%=      5-min Rain = 0
KPD4 182159Z 19017KT 39/16 A2981 RMK A01 T03920156  RH  025%=      5-min Rain = 0
KPD4 182200Z 19017KT 39/16 A2981 RMK A01 T03910157  RH  025%=      5-min Rain = 0
KPD4 182201Z 17017KT 39/16 A2981 RMK A01 T03890159  RH  026%=      5-min Rain = 0
KPD4 182202Z 16020KT 39/16 A2981 RMK A01 T03900160  RH  026%=      5-min Rain = 0
KPD4 182203Z 18016G21KT 39/16 A2981 RMK A01 T03900160  RH  026%=      5-min Rain = 0
KPD4 182204Z 17017KT 39/16 A2981 RMK A01 T03900161  RH  026%=      5-min Rain = 0
KPD4 182205Z 16020G26KT 39/16 A2981 RMK A01 T03900159  RH  026%=      5-min Rain = 0
KPD4 182206Z 17019G24KT 39/16 A2981 RMK A01 T03880159  RH  026%=      5-min Rain = 0
KPD4 182207Z 17020KT 39/16 A2981 RMK A01 T03890160  RH  026%=      5-min Rain = 0
KPD4 182208Z 17019G24KT 39/16 A2981 RMK A01 T03890160  RH  026%=      5-min Rain = 0
KPD4 182209Z 18017KT 39/16 A2981 RMK A01 T03880160  RH  026%=      5-min Rain = 0
KPD4 182210Z 18015KT 39/16 A2981 RMK A01 T03880162  RH  026%=      5-min Rain = 0
KPD4 182211Z 16017KT 39/16 A2981 RMK A01 T03880161  RH  026%=      5-min Rain = 0
KPD4 182212Z 17017KT 39/16 A2981 RMK A01 T03870163  RH  027%=      5-min Rain = 0
KPD4 182213Z 17018KT 39/16 A2981 RMK A01 T03870163  RH  027%=      5-min Rain = 0
KPD4 182214Z 17015KT 39/16 A2981 RMK A01 T03880161  RH  026%=      5-min Rain = 0
KPD4 182215Z 17017KT 39/16 A2981 RMK A01 T03880161  RH  026%=      5-min Rain = 0
KPD4 182216Z 18020KT 39/16 A2981 RMK A01 T03870161  RH  027%=      5-min Rain = 0
KPD4 182217Z 16018G23KT 39/16 A2981 RMK A01 T03870163  RH  027%=      5-min Rain = 0
KPD4 182218Z 17018G24KT 39/16 A2981 RMK A01 T03870163  RH  027%=      5-min Rain = 0
KPD4 182219Z 16015KT 39/16 A2981 RMK A01 T03880164  RH  027%=      5-min Rain = 0
KPD4 182220Z 16017G22KT 39/17 A298 RMK A01 T03880166  RH  027%=      5-min Rain = 0
KPD4 182221Z 17017KT 39/17 A298 RMK A01 T03880166  RH  027%=      5-min Rain = 0
KPD4 182222Z 18016KT 39/17 A298 RMK A01 T03890166  RH  027%=      5-min Rain = 0
KPD4 182223Z 18018KT 39/16 A298 RMK A01 T03900163  RH  027%=      5-min Rain = 0
KPD4 182224Z 18017KT 39/16 A298 RMK A01 T03880159  RH  026%=      5-min Rain = 0
KPD4 182225Z 18019G24KT 39/16 A298 RMK A01 T03860160  RH  027%=      5-min Rain = 0
KPD4 182226Z 18018KT 38/16 A298 RMK A01 T03830158  RH  027%=      5-min Rain = 0
KPD4 182227Z 18023KT 38/16 A298 RMK A01 T03810159  RH  027%=      5-min Rain = 0
KPD4 182228Z 17019KT 38/16 A298 RMK A01 T03800157  RH  027%=      5-min Rain = 0
KPD4 182229Z 18020KT 38/16 A298 RMK A01 T03780158  RH  027%=      5-min Rain = 0
KPD4 182230Z 19016G22KT 38/16 A298 RMK A01 T03780160  RH  028%=      5-min Rain = 0
KPD4 182231Z 19019KT 38/16 A298 RMK A01 T03790158  RH  027%=      5-min Rain = 0
KPD4 182232Z 19020KT 38/16 A298 RMK A01 T03790157  RH  027%=      5-min Rain = 0
KPD4 182233Z 18017KT 38/16 A298 RMK A01 T03800156  RH  027%=      5-min Rain = 0
KPD4 182234Z 18016KT 38/16 A298 RMK A01 T03800157  RH  027%=      5-min Rain = 0
KPD4 182235Z 18019KT 38/16 A298 RMK A01 T03820158  RH  027%=      5-min Rain = 0
KPD4 182236Z 18019KT 38/16 A298 RMK A01 T03830158  RH  027%=      5-min Rain = 0
KPD4 182237Z 18016KT 38/16 A298 RMK A01 T03840157  RH  026%=      5-min Rain = 0
KPD4 182238Z 16018KT 38/16 A298 RMK A01 T03840159  RH  027%=      5-min Rain = 0
KPD4 182239Z 16018KT 38/16 A298 RMK A01 T03840159  RH  027%=      5-min Rain = 0
KPD4 182240Z 16016KT 38/16 A298 RMK A01 T03840161  RH  027%=      5-min Rain = 0
KPD4 182241Z 17018KT 39/16 A298 RMK A01 T03850163  RH  027%=      5-min Rain = 0
KPD4 182242Z 17019G24KT 39/16 A298 RMK A01 T03850158  RH  026%=      5-min Rain = 0
KPD4 182243Z 18019G24KT 39/16 A298 RMK A01 T03860159  RH  026%=      5-min Rain = 0
KPD4 182244Z 19017KT 39/16 A298 RMK A01 T03880157  RH  026%=      5-min Rain = 0
KPD4 182245Z 19018G23KT 39/16 A298 RMK A01 T03890157  RH  026%=      5-min Rain = 0
KPD4 182246Z 19018KT 39/16 A2979 RMK A01 T03890155  RH  025%=      5-min Rain = 0
KPD4 182247Z 19019KT 39/16 A2979 RMK A01 T03890155  RH  025%=      5-min Rain = 0
KPD4 182248Z 18018KT 39/15 A2979 RMK A01 T03890154  RH  025%=      5-min Rain = 0
KPD4 182249Z 18015KT 39/16 A2979 RMK A01 T03880156  RH  026%=      5-min Rain = 0
KPD4 182250Z 19018KT 39/16 A2979 RMK A01 T03890156  RH  026%=      5-min Rain = 0
KPD4 182251Z 19021KT 39/15 A2979 RMK A01 T03890154  RH  025%=      5-min Rain = 0
KPD4 182252Z 19017KT 39/16 A2979 RMK A01 T03890156  RH  025%=      5-min Rain = 0
KPD4 182253Z 18017KT 39/16 A2979 RMK A01 T03890158  RH  026%=      5-min Rain = 0
KPD4 182254Z 17020KT 39/16 A2979 RMK A01 T03890157  RH  026%=      5-min Rain = 0
KPD4 182255Z 19018KT 39/16 A2979 RMK A01 T03870156  RH  026%=      5-min Rain = 0
KPD4 182256Z 19015KT 39/16 A2979 RMK A01 T03870158  RH  026%=      5-min Rain = 0
KPD4 182257Z 18018KT 39/16 A2979 RMK A01 T03900158  RH  026%=      5-min Rain = 0
KPD4 182258Z 18018KT 39/16 A2979 RMK A01 T03900157  RH  025%=      5-min Rain = 0
KPD4 182259Z 18019KT 39/16 A2979 RMK A01 T03900157  RH  025%=      5-min Rain = 0
KPD4 182300Z 18020KT 39/15 A2979 RMK A01 T03900151  RH  025%=      5-min Rain = 0
KPD4 182301Z 19017G22KT 39/15 A2979 RMK A01 T03880150  RH  025%=      5-min Rain = 0
KPD4 182302Z 17019KT 39/15 A2979 RMK A01 T03880150  RH  025%=      5-min Rain = 0
KPD4 182303Z 18019G24KT 39/15 A2979 RMK A01 T03880149  RH  024%=      5-min Rain = 0
KPD4 182304Z 19016KT 39/15 A2979 RMK A01 T03880150  RH  025%=      5-min Rain = 0
KPD4 182305Z 19017KT 39/15 A2979 RMK A01 T03900152  RH  025%=      5-min Rain = 0
KPD4 182306Z 18019KT 39/15 A2979 RMK A01 T03910148  RH  024%=      5-min Rain = 0
KPD4 182307Z 19015KT 39/15 A2979 RMK A01 T03900150  RH  024%=      5-min Rain = 0
KPD4 182308Z 18019KT 39/15 A2979 RMK A01 T03900150  RH  024%=      5-min Rain = 0
KPD4 182309Z 18018KT 39/15 A2979 RMK A01 T03890149  RH  024%=      5-min Rain = 0
KPD4 182310Z 18018KT 39/15 A2979 RMK A01 T03880153  RH  025%=      5-min Rain = 0
KPD4 182311Z 17018KT 39/15 A2979 RMK A01 T03880154  RH  025%=      5-min Rain = 0
KPD4 182312Z 17017KT 39/15 A2979 RMK A01 T03870154  RH  025%=      5-min Rain = 0
KPD4 182313Z 17016KT 39/16 A2979 RMK A01 T03870155  RH  026%=      5-min Rain = 0
KPD4 182314Z 17016KT 39/15 A2979 RMK A01 T03860154  RH  026%=      5-min Rain = 0
KPD4 182315Z 18020KT 39/15 A2979 RMK A01 T03860153  RH  025%=      5-min Rain = 0
KPD4 182316Z 19018KT 39/15 A2979 RMK A01 T03860146  RH  024%=      5-min Rain = 0
KPD4 182317Z 19020KT 39/15 A2979 RMK A01 T03870145  RH  024%=      5-min Rain = 0
KPD4 182318Z 19020KT 39/14 A2979 RMK A01 T03870141  RH  023%=      5-min Rain = 0
KPD4 182319Z 19017KT 39/14 A2979 RMK A01 T03870141  RH  023%=      5-min Rain = 0
KPD4 182320Z 19016KT 39/14 A2979 RMK A01 T03870142  RH  023%=      5-min Rain = 0
KPD4 182321Z 19018KT 39/14 A2979 RMK A01 T03870143  RH  024%=      5-min Rain = 0
KPD4 182322Z 18017KT 39/14 A2979 RMK A01 T03870141  RH  023%=      5-min Rain = 0
KPD4 182323Z 18019KT 39/14 A2979 RMK A01 T03870141  RH  023%=      5-min Rain = 0
KPD4 182324Z 17015KT 39/14 A2979 RMK A01 T03860142  RH  024%=      5-min Rain = 0
KPD4 182325Z 18015KT 39/14 A2979 RMK A01 T03850144  RH  024%=      5-min Rain = 0
KPD4 182326Z 18014KT 39/15 A2979 RMK A01 T03850145  RH  024%=      5-min Rain = 0
KPD4 182327Z 18016KT 39/15 A2979 RMK A01 T03860152  RH  025%=      5-min Rain = 0
KPD4 182328Z 18018KT 39/15 A2979 RMK A01 T03860152  RH  025%=      5-min Rain = 0
KPD4 182329Z 19018KT 39/15 A2979 RMK A01 T03850151  RH  025%=      5-min Rain = 0
KPD4 182330Z 19017KT 39/15 A2979 RMK A01 T03850152  RH  025%=      5-min Rain = 0
KPD4 182331Z 18014KT 39/15 A2979 RMK A01 T03850151  RH  025%=      5-min Rain = 0
KPD4 182332Z 20017KT 39/15 A2978 RMK A01 T03850148  RH  025%=      5-min Rain = 0
KPD4 182333Z 19014KT 39/15 A2979 RMK A01 T03860147  RH  024%=      5-min Rain = 0
KPD4 182334Z 18017KT 39/15 A2979 RMK A01 T03880148  RH  024%=      5-min Rain = 0
KPD4 182335Z 18017KT 39/15 A2979 RMK A01 T03870150  RH  025%=      5-min Rain = 0
KPD4 182336Z 17014KT 39/16 A2979 RMK A01 T03860155  RH  026%=      5-min Rain = 0
KPD4 182337Z 17018KT 39/15 A2979 RMK A01 T03850154  RH  026%=      5-min Rain = 0
KPD4 182338Z 17019KT 38/15 A2979 RMK A01 T03840152  RH  025%=      5-min Rain = 0
KPD4 182339Z 17018KT 38/15 A2979 RMK A01 T03830150  RH  025%=      5-min Rain = 0
KPD4 182340Z 17018KT 38/15 A2979 RMK A01 T03820152  RH  026%=      5-min Rain = 0
KPD4 182341Z 17019KT 38/15 A2979 RMK A01 T03810152  RH  026%=      5-min Rain = 0
KPD4 182342Z 17017G22KT 38/15 A2979 RMK A01 T03810151  RH  026%=      5-min Rain = 0
KPD4 182343Z 18013G19KT 38/15 A2979 RMK A01 T03800154  RH  026%=      5-min Rain = 0
KPD4 182344Z 17017G22KT 38/16 A2979 RMK A01 T03800155  RH  026%=      5-min Rain = 0
KPD4 182345Z 17017KT 38/15 A2979 RMK A01 T03800153  RH  026%=      5-min Rain = 0
KPD4 182346Z 17015KT 38/16 A2979 RMK A01 T03810155  RH  026%=      5-min Rain = 0
KPD4 182347Z 17015KT 38/15 A2979 RMK A01 T03810154  RH  026%=      5-min Rain = 0
KPD4 182348Z 17015KT 38/15 A2979 RMK A01 T03810153  RH  026%=      5-min Rain = 0
KPD4 182349Z 17013KT 38/16 A2979 RMK A01 T03810155  RH  026%=      5-min Rain = 0
KPD4 182350Z 17014KT 38/16 A2979 RMK A01 T03810158  RH  027%=      5-min Rain = 0
KPD4 182351Z 17016KT 38/15 A2979 RMK A01 T03810153  RH  026%=      5-min Rain = 0
KPD4 182352Z 17016G21KT 38/15 A2979 RMK A01 T03810153  RH  026%=      5-min Rain = 0
KPD4 182353Z 17019KT 38/15 A2979 RMK A01 T03810151  RH  026%=      5-min Rain = 0
KPD4 182354Z 17018KT 38/15 A2979 RMK A01 T03800150  RH  026%=      5-min Rain = 0
KPD4 182355Z 17017G22KT 38/15 A2979 RMK A01 T03800151  RH  026%=      5-min Rain = 0
KPD4 182356Z 18019KT 38/15 A2979 RMK A01 T03800150  RH  026%=      5-min Rain = 0
KPD4 182357Z 17014G19KT 38/15 A2979 RMK A01 T03800151  RH  026%=      5-min Rain = 0
KPD4 182358Z 16017KT 38/15 A2979 RMK A01 T03800154  RH  026%=      5-min Rain = 0
KPD4 182359Z 16015KT 38/15 A2979 RMK A01 T03790152  RH  026%=      5-min Rain = 0
KPD4 190000Z 17017KT 38/15 A2979 RMK A01 T03780152  RH  026%=      5-min Rain = 0
KPD4 190001Z 18018KT 38/15 A2979 RMK A01 T03780151  RH  026%=      5-min Rain = 0
KPD4 190002Z 17015KT 38/15 A2979 RMK A01 T03770151  RH  026%=      5-min Rain = 0
KPD4 190003Z 17015KT 38/15 A2979 RMK A01 T03780152  RH  026%=      5-min Rain = 0
KPD4 190004Z 17015KT 38/15 A2979 RMK A01 T03780153  RH  027%=      5-min Rain = 0
KPD4 190005Z 16017G23KT 38/15 A2979 RMK A01 T03770151  RH  026%=      5-min Rain = 0
KPD4 190006Z 17020KT 38/15 A2979 RMK A01 T03770150  RH  026%=      5-min Rain = 0
KPD4 190007Z 17019KT 38/15 A2979 RMK A01 T03770150  RH  026%=      5-min Rain = 0
KPD4 190008Z 17017KT 38/15 A2979 RMK A01 T03760151  RH  026%=      5-min Rain = 0
KPD4 190009Z 18015KT 38/15 A2979 RMK A01 T03770152  RH  027%=      5-min Rain = 0
KPD4 190010Z 18016KT 38/15 A2979 RMK A01 T03760151  RH  026%=      5-min Rain = 0
KPD4 190011Z 17013KT 38/15 A2979 RMK A01 T03760153  RH  027%=      5-min Rain = 0
KPD4 190012Z 17015KT 38/16 A2979 RMK A01 T03750155  RH  027%=      5-min Rain = 0
KPD4 190013Z 17016KT 37/15 A2979 RMK A01 T03740154  RH  027%=      5-min Rain = 0
KPD4 190014Z 17015KT 37/15 A2979 RMK A01 T03740152  RH  027%=      5-min Rain = 0
KPD4 190015Z 18017KT 37/15 A2979 RMK A01 T03740152  RH  027%=      5-min Rain = 0
KPD4 190016Z 18014KT 38/15 A2979 RMK A01 T03750151  RH  027%=      5-min Rain = 0
KPD4 190017Z 17013KT 38/15 A2979 RMK A01 T03750153  RH  027%=      5-min Rain = 0
KPD4 190018Z 17013KT 38/15 A2979 RMK A01 T03760154  RH  027%=      5-min Rain = 0
KPD4 190019Z 17014KT 38/15 A2979 RMK A01 T03750154  RH  027%=      5-min Rain = 0
KPD4 190020Z 16014KT 38/15 A2979 RMK A01 T03750153  RH  027%=      5-min Rain = 0
KPD4 190021Z 17014KT 38/16 A2979 RMK A01 T03750155  RH  027%=      5-min Rain = 0
KPD4 190022Z 17013KT 37/16 A2979 RMK A01 T03740155  RH  027%=      5-min Rain = 0
KPD4 190023Z 17014KT 37/15 A2979 RMK A01 T03730154  RH  027%=      5-min Rain = 0
KPD4 190024Z 17014G19KT 37/15 A2979 RMK A01 T03720154  RH  028%=      5-min Rain = 0
KPD4 190025Z 17019KT 37/15 A2979 RMK A01 T03710150  RH  027%=      5-min Rain = 0
KPD4 190026Z 17016KT 37/15 A2979 RMK A01 T03710150  RH  027%=      5-min Rain = 0
KPD4 190027Z 17014KT 37/15 A2979 RMK A01 T03710151  RH  027%=      5-min Rain = 0
KPD4 190028Z 17014KT 37/15 A2979 RMK A01 T03700153  RH  028%=      5-min Rain = 0
KPD4 190029Z 17012KT 37/15 A2979 RMK A01 T03700152  RH  028%=      5-min Rain = 0
KPD4 190030Z 17012KT 37/16 A2979 RMK A01 T03680156  RH  028%=      5-min Rain = 0
KPD4 190031Z 17014G19KT 37/16 A2979 RMK A01 T03670155  RH  028%=      5-min Rain = 0
KPD4 190032Z 17013KT 37/15 A2979 RMK A01 T03660153  RH  028%=      5-min Rain = 0
KPD4 190033Z 17015KT 37/15 A2979 RMK A01 T03650153  RH  028%=      5-min Rain = 0
KPD4 190034Z 17015KT 37/15 A2979 RMK A01 T03650152  RH  028%=      5-min Rain = 0
KPD4 190035Z 16012KT 36/15 A2979 RMK A01 T03640152  RH  028%=      5-min Rain = 0
KPD4 190036Z 16012KT 36/15 A2979 RMK A01 T03630154  RH  029%=      5-min Rain = 0
KPD4 190037Z 16010KT 36/16 A2979 RMK A01 T03620156  RH  029%=      5-min Rain = 0
KPD4 190038Z 17015G20KT 36/15 A2979 RMK A01 T03620154  RH  029%=      5-min Rain = 0
KPD4 190039Z 17015G21KT 36/15 A2979 RMK A01 T03630152  RH  029%=      5-min Rain = 0
KPD4 190040Z 17016KT 37/15 A2979 RMK A01 T03650150  RH  028%=      5-min Rain = 0
KPD4 190041Z 17013KT 37/15 A2979 RMK A01 T03660152  RH  028%=      5-min Rain = 0
KPD4 190042Z 17013KT 37/15 A2979 RMK A01 T03660153  RH  028%=      5-min Rain = 0
KPD4 190043Z 17014KT 37/15 A2979 RMK A01 T03660153  RH  028%=      5-min Rain = 0
KPD4 190044Z 17016KT 37/15 A2979 RMK A01 T03660151  RH  028%=      5-min Rain = 0
KPD4 190045Z 17013KT 37/15 A2979 RMK A01 T03660151  RH  028%=      5-min Rain = 0
KPD4 190046Z 17013KT 37/15 A2979 RMK A01 T03660154  RH  029%=      5-min Rain = 0
KPD4 190047Z 17015KT 36/15 A2979 RMK A01 T03640153  RH  029%=      5-min Rain = 0
KPD4 190048Z 17014KT 36/15 A2979 RMK A01 T03640152  RH  028%=      5-min Rain = 0
KPD4 190049Z 17013KT 36/15 A2979 RMK A01 T03640151  RH  028%=      5-min Rain = 0
KPD4 190050Z 16012KT 36/15 A2979 RMK A01 T03640154  RH  029%=      5-min Rain = 0
KPD4 190051Z 16012KT 36/16 A2979 RMK A01 T03630155  RH  029%=      5-min Rain = 0
KPD4 190052Z 17012KT 36/15 A2979 RMK A01 T03620154  RH  029%=      5-min Rain = 0
KPD4 190053Z 17013KT 36/15 A2979 RMK A01 T03620153  RH  029%=      5-min Rain = 0
KPD4 190054Z 16013KT 36/15 A2979 RMK A01 T03610153  RH  029%=      5-min Rain = 0
KPD4 190055Z 17015KT 36/15 A2979 RMK A01 T03610152  RH  029%=      5-min Rain = 0
KPD4 190056Z 17012KT 36/15 A2979 RMK A01 T03620153  RH  029%=      5-min Rain = 0
KPD4 190057Z 16013KT 36/15 A2979 RMK A01 T03610152  RH  029%=      5-min Rain = 0
KPD4 190058Z 17013KT 36/15 A2979 RMK A01 T03620152  RH  029%=      5-min Rain = 0
KPD4 190059Z 17013KT 36/15 A2979 RMK A01 T03610152  RH  029%=      5-min Rain = 0
KPD4 190100Z 17015KT 36/15 A2979 RMK A01 T03600152  RH  029%=      5-min Rain = 0
KPD4 190101Z 17013KT 36/15 A2979 RMK A01 T03600151  RH  029%=      5-min Rain = 0
KPD4 190102Z 17011KT 36/15 A2979 RMK A01 T03600152  RH  029%=      5-min Rain = 0
KPD4 190103Z 16011KT 36/15 A2979 RMK A01 T03590153  RH  029%=      5-min Rain = 0
KPD4 190104Z 17011KT 36/15 A2979 RMK A01 T03580153  RH  029%=      5-min Rain = 0
KPD4 190105Z 16011KT 36/15 A2979 RMK A01 T03570152  RH  030%=      5-min Rain = 0
KPD4 190106Z 17012KT 36/15 A2979 RMK A01 T03570153  RH  030%=      5-min Rain = 0
KPD4 190107Z 16016KT 36/15 A2979 RMK A01 T03570151  RH  029%=      5-min Rain = 0
KPD4 190108Z 17014KT 36/15 A2979 RMK A01 T03570150  RH  029%=      5-min Rain = 0
KPD4 190109Z 16011KT 36/15 A2979 RMK A01 T03570152  RH  029%=      5-min Rain = 0
KPD4 190110Z 17012KT 36/15 A2979 RMK A01 T03560152  RH  030%=      5-min Rain = 0
KPD4 190111Z 16013KT 36/15 A2979 RMK A01 T03560152  RH  030%=      5-min Rain = 0
KPD4 190112Z 16012KT 36/15 A2979 RMK A01 T03550151  RH  030%=      5-min Rain = 0
KPD4 190113Z 16012KT 35/15 A2979 RMK A01 T03540152  RH  030%=      5-min Rain = 0
KPD4 190114Z 17012KT 35/15 A2979 RMK A01 T03540152  RH  030%=      5-min Rain = 0
KPD4 190115Z 16013KT 35/15 A2979 RMK A01 T03530152  RH  030%=      5-min Rain = 0
KPD4 190116Z 16012KT 35/15 A2979 RMK A01 T03530152  RH  030%=      5-min Rain = 0
KPD4 190117Z 16012KT 35/15 A2979 RMK A01 T03520152  RH  030%=      5-min Rain = 0
KPD4 190118Z 16013KT 35/15 A2979 RMK A01 T03520153  RH  030%=      5-min Rain = 0
KPD4 190119Z 16012KT 35/15 A2979 RMK A01 T03510153  RH  031%=      5-min Rain = 0
KPD4 190120Z 16014KT 35/15 A2979 RMK A01 T03510153  RH  031%=      5-min Rain = 0
KPD4 190121Z 16013KT 35/15 A2979 RMK A01 T03500152  RH  031%=      5-min Rain = 0
KPD4 190122Z 16011KT 35/15 A2979 RMK A01 T03500154  RH  031%=      5-min Rain = 0
KPD4 190123Z 16012KT 35/15 A2979 RMK A01 T03490154  RH  031%=      5-min Rain = 0
KPD4 190124Z 16013KT 35/15 A2979 RMK A01 T03480154  RH  031%=      5-min Rain = 0
KPD4 190125Z 16013KT 35/15 A2979 RMK A01 T03480154  RH  031%=      5-min Rain = 0
KPD4 190126Z 16013KT 35/15 A2979 RMK A01 T03480154  RH  031%=      5-min Rain = 0
KPD4 190127Z 16012KT 35/16 A2979 RMK A01 T03470155  RH  032%=      5-min Rain = 0
KPD4 190128Z 16011KT 35/16 A2979 RMK A01 T03460155  RH  032%=      5-min Rain = 0
KPD4 190129Z 16011KT 35/15 A298 RMK A01 T03460154  RH  032%=      5-min Rain = 0
KPD4 190130Z 16013KT 35/15 A298 RMK A01 T03450154  RH  032%=      5-min Rain = 0
KPD4 190131Z 16013KT 35/15 A298 RMK A01 T03450154  RH  032%=      5-min Rain = 0
KPD4 190132Z 17011KT 35/15 A298 RMK A01 T03450154  RH  032%=      5-min Rain = 0
KPD4 190133Z 16012KT 34/16 A298 RMK A01 T03440155  RH  032%=      5-min Rain = 0
KPD4 190134Z 16012KT 34/16 A298 RMK A01 T03440155  RH  032%=      5-min Rain = 0
KPD4 190135Z 17012KT 34/15 A298 RMK A01 T03430154  RH  032%=      5-min Rain = 0
KPD4 190136Z 16012KT 34/15 A298 RMK A01 T03430154  RH  032%=      5-min Rain = 0
KPD4 190137Z 16011KT 34/15 A298 RMK A01 T03420154  RH  032%=      5-min Rain = 0
KPD4 190138Z 16011KT 34/15 A298 RMK A01 T03420154  RH  032%=      5-min Rain = 0
KPD4 190139Z 16010KT 34/16 A298 RMK A01 T03410155  RH  033%=      5-min Rain = 0
KPD4 190140Z 16011KT 34/16 A298 RMK A01 T03400155  RH  033%=      5-min Rain = 0
KPD4 190141Z 16010KT 34/16 A298 RMK A01 T03390156  RH  033%=      5-min Rain = 0
KPD4 190142Z 16010KT 34/16 A298 RMK A01 T03370156  RH  034%=      5-min Rain = 0
KPD4 190143Z 16010KT 34/16 A298 RMK A01 T03360157  RH  034%=      5-min Rain = 0
KPD4 190144Z 16009KT 34/16 A298 RMK A01 T03350157  RH  034%=      5-min Rain = 0
KPD4 190145Z 16009KT 33/16 A298 RMK A01 T03330158  RH  035%=      5-min Rain = 0
KPD4 190146Z 16009KT 33/16 A298 RMK A01 T03320158  RH  035%=      5-min Rain = 0
KPD4 190147Z 16009KT 33/16 A298 RMK A01 T03310157  RH  035%=      5-min Rain = 0
KPD4 190148Z 16009KT 33/16 A298 RMK A01 T03310158  RH  035%=      5-min Rain = 0
KPD4 190149Z 16009KT 33/16 A298 RMK A01 T03310159  RH  036%=      5-min Rain = 0
KPD4 190150Z 16009KT 33/16 A298 RMK A01 T03300158  RH  036%=      5-min Rain = 0
KPD4 190151Z 16009KT 33/16 A298 RMK A01 T03300159  RH  036%=      5-min Rain = 0
KPD4 190152Z 16010KT 33/16 A298 RMK A01 T03290159  RH  036%=      5-min Rain = 0
KPD4 190153Z 16010KT 33/16 A298 RMK A01 T03280158  RH  036%=      5-min Rain = 0
KPD4 190154Z 16011KT 33/16 A298 RMK A01 T03280157  RH  036%=      5-min Rain = 0
KPD4 190155Z 16010KT 33/16 A298 RMK A01 T03280156  RH  036%=      5-min Rain = 0
KPD4 190156Z 16011KT 33/16 A298 RMK A01 T03280156  RH  036%=      5-min Rain = 0
KPD4 190157Z 16010KT 33/16 A298 RMK A01 T03280156  RH  036%=      5-min Rain = 0
KPD4 190158Z 16010KT 33/16 A298 RMK A01 T03280156  RH  036%=      5-min Rain = 0
KPD4 190159Z 16010KT 33/16 A298 RMK A01 T03270155  RH  036%=      5-min Rain = 0
KPD4 190200Z 16010KT 33/16 A298 RMK A01 T03270155  RH  035%=      5-min Rain = 0
KPD4 190201Z 16010KT 33/16 A298 RMK A01 T03270155  RH  036%=      5-min Rain = 0
KPD4 190202Z 16010KT 33/16 A298 RMK A01 T03260155  RH  036%=      5-min Rain = 0
KPD4 190203Z 16009KT 33/16 A298 RMK A01 T03260155  RH  036%=      5-min Rain = 0
KPD4 190204Z 16009KT 33/16 A298 RMK A01 T03250155  RH  036%=      5-min Rain = 0
KPD4 190205Z 16010KT 32/15 A298 RMK A01 T03230154  RH  036%=      5-min Rain = 0
KPD4 190206Z 16009KT 32/15 A298 RMK A01 T03230154  RH  036%=      5-min Rain = 0
KPD4 190207Z 16010KT 32/16 A298 RMK A01 T03230155  RH  036%=      5-min Rain = 0
KPD4 190208Z 16010KT 32/16 A298 RMK A01 T03230155  RH  036%=      5-min Rain = 0
KPD4 190209Z 16010KT 32/16 A298 RMK A01 T03220155  RH  037%=      5-min Rain = 0
KPD4 190210Z 15010KT 32/16 A298 RMK A01 T03210155  RH  037%=      5-min Rain = 0
KPD4 190211Z 16011KT 32/15 A298 RMK A01 T03210154  RH  037%=      5-min Rain = 0
KPD4 190212Z 16010KT 32/16 A298 RMK A01 T03210155  RH  037%=      5-min Rain = 0
KPD4 190213Z 16010KT 32/16 A298 RMK A01 T03200155  RH  037%=      5-min Rain = 0
KPD4 190214Z 15010KT 32/16 A298 RMK A01 T03200155  RH  037%=      5-min Rain = 0
KPD4 190215Z 15010KT 32/16 A298 RMK A01 T03200155  RH  037%=      5-min Rain = 0
KPD4 190216Z 15009KT 32/16 A298 RMK A01 T03200156  RH  037%=      5-min Rain = 0
KPD4 190217Z 15010KT 32/16 A298 RMK A01 T03180156  RH  038%=      5-min Rain = 0
KPD4 190218Z 15009KT 32/16 A298 RMK A01 T03170156  RH  038%=      5-min Rain = 0
KPD4 190219Z 15009KT 32/16 A298 RMK A01 T03160157  RH  038%=      5-min Rain = 0
KPD4 190220Z 14010KT 31/16 A298 RMK A01 T03140158  RH  039%=      5-min Rain = 0
KPD4 190221Z 14010KT 31/16 A298 RMK A01 T03120159  RH  040%=      5-min Rain = 0
KPD4 190222Z 15010KT 31/16 A298 RMK A01 T03120160  RH  040%=      5-min Rain = 0
KPD4 190223Z 15011KT 31/16 A298 RMK A01 T03110157  RH  039%=      5-min Rain = 0
KPD4 190224Z 15010KT 31/16 A298 RMK A01 T03130157  RH  039%=      5-min Rain = 0
KPD4 190225Z 15010KT 31/16 A298 RMK A01 T03130158  RH  039%=      5-min Rain = 0
KPD4 190226Z 15010KT 31/16 A2981 RMK A01 T03130158  RH  039%=      5-min Rain = 0
KPD4 190227Z 15010KT 31/16 A2981 RMK A01 T03130158  RH  039%=      5-min Rain = 0
KPD4 190228Z 15009KT 31/16 A2981 RMK A01 T03120160  RH  040%=      5-min Rain = 0
KPD4 190229Z 15008KT 31/16 A2981 RMK A01 T03110161  RH  040%=      5-min Rain = 0
KPD4 190230Z 15007KT 31/16 A2981 RMK A01 T03100162  RH  041%=      5-min Rain = 0
KPD4 190231Z 15008KT 31/16 A2981 RMK A01 T03080163  RH  042%=      5-min Rain = 0
KPD4 190232Z 15008KT 31/16 A2981 RMK A01 T03060163  RH  042%=      5-min Rain = 0
KPD4 190233Z 16009KT 31/16 A2981 RMK A01 T03050164  RH  043%=      5-min Rain = 0
KPD4 190234Z 16007KT 31/17 A2981 RMK A01 T03050165  RH  043%=      5-min Rain = 0
KPD4 190235Z 16008KT 31/17 A2981 RMK A01 T03050166  RH  043%=      5-min Rain = 0
KPD4 190236Z 16008KT 30/17 A2981 RMK A01 T03030165  RH  043%=      5-min Rain = 0
KPD4 190237Z 16010KT 30/16 A2981 RMK A01 T03030164  RH  043%=      5-min Rain = 0
KPD4 190238Z 16010KT 30/16 A2981 RMK A01 T03030164  RH  043%=      5-min Rain = 0
KPD4 190239Z 16010KT 30/16 A2981 RMK A01 T03030164  RH  043%=      5-min Rain = 0
KPD4 190240Z 16010KT 30/16 A2981 RMK A01 T03020163  RH  043%=      5-min Rain = 0
KPD4 190241Z 15011KT 30/16 A2981 RMK A01 T03020163  RH  043%=      5-min Rain = 0
KPD4 190242Z 15010KT 30/16 A2981 RMK A01 T03030164  RH  043%=      5-min Rain = 0
KPD4 190243Z 15011KT 30/16 A2981 RMK A01 T03030164  RH  043%=      5-min Rain = 0
KPD4 190244Z 16010G15KT 30/17 A2981 RMK A01 T03030165  RH  043%=      5-min Rain = 0
KPD4 190245Z 16010KT 30/17 A2981 RMK A01 T03030166  RH  044%=      5-min Rain = 0
KPD4 190246Z 16009KT 30/17 A2981 RMK A01 T03020166  RH  044%=      5-min Rain = 0
KPD4 190247Z 16009KT 30/17 A2981 RMK A01 T03010166  RH  044%=      5-min Rain = 0
KPD4 190248Z 16009KT 30/17 A2981 RMK A01 T03000166  RH  044%=      5-min Rain = 0
KPD4 190249Z 16009KT 30/17 A2981 RMK A01 T02990166  RH  045%=      5-min Rain = 0
KPD4 190250Z 16008KT 30/17 A2981 RMK A01 T02980166  RH  045%=      5-min Rain = 0
KPD4 190251Z 16009KT 30/17 A2981 RMK A01 T02970166  RH  045%=      5-min Rain = 0
KPD4 190252Z 16008KT 30/17 A2981 RMK A01 T02970166  RH  045%=      5-min Rain = 0
KPD4 190253Z 16009KT 30/17 A2981 RMK A01 T02970167  RH  045%=      5-min Rain = 0
KPD4 190254Z 16009KT 30/17 A2981 RMK A01 T02970167  RH  046%=      5-min Rain = 0
KPD4 190255Z 16009KT 30/17 A2981 RMK A01 T02970167  RH  046%=      5-min Rain = 0
KPD4 190256Z 16010KT 30/17 A2981 RMK A01 T02970167  RH  046%=      5-min Rain = 0
KPD4 190257Z 16009KT 30/17 A2981 RMK A01 T02970168  RH  046%=      5-min Rain = 0
KPD4 190258Z 16009KT 30/17 A2981 RMK A01 T02970169  RH  046%=      5-min Rain = 0
KPD4 190259Z 16009KT 30/17 A2981 RMK A01 T02960169  RH  046%=      5-min Rain = 0
KPD4 190300Z 16009KT 30/17 A2981 RMK A01 T02960170  RH  047%=      5-min Rain = 0
KPD4 190301Z 16010KT 30/17 A2981 RMK A01 T02960171  RH  047%=      5-min Rain = 0
KPD4 190302Z 15009KT 30/17 A2981 RMK A01 T02960171  RH  047%=      5-min Rain = 0
KPD4 190303Z 16009KT 30/17 A2982 RMK A01 T02950171  RH  047%=      5-min Rain = 0
KPD4 190304Z 15009KT 30/17 A2982 RMK A01 T02960172  RH  047%=      5-min Rain = 0
KPD4 190305Z 16009KT 30/17 A2982 RMK A01 T02950171  RH  047%=      5-min Rain = 0
KPD4 190306Z 16010KT 30/17 A2982 RMK A01 T02950172  RH  048%=      5-min Rain = 0
KPD4 190307Z 15010KT 30/17 A2982 RMK A01 T02950172  RH  048%=      5-min Rain = 0
KPD4 190308Z 16010KT 30/17 A2982 RMK A01 T02950173  RH  048%=      5-min Rain = 0
KPD4 190309Z 16010KT 29/17 A2982 RMK A01 T02940173  RH  048%=      5-min Rain = 0
KPD4 190310Z 16010KT 30/17 A2982 RMK A01 T02950174  RH  048%=      5-min Rain = 0
KPD4 190311Z 15010KT 29/17 A2982 RMK A01 T02940173  RH  048%=      5-min Rain = 0
KPD4 190312Z 15010KT 29/17 A2982 RMK A01 T02940174  RH  048%=      5-min Rain = 0
KPD4 190313Z 15009KT 29/17 A2982 RMK A01 T02940174  RH  048%=      5-min Rain = 0
KPD4 190314Z 15010KT 29/18 A2982 RMK A01 T02940175  RH  049%=      5-min Rain = 0
KPD4 190315Z 15011KT 29/18 A2982 RMK A01 T02940175  RH  049%=      5-min Rain = 0
KPD4 190316Z 15011KT 29/18 A2982 RMK A01 T02940176  RH  049%=      5-min Rain = 0
KPD4 190317Z 15011KT 30/18 A2982 RMK A01 T02950176  RH  049%=      5-min Rain = 0
KPD4 190318Z 15012KT 30/18 A2982 RMK A01 T02950176  RH  049%=      5-min Rain = 0
KPD4 190319Z 16012KT 30/18 A2982 RMK A01 T02960176  RH  049%=      5-min Rain = 0
KPD4 190320Z 15012KT 30/18 A2982 RMK A01 T02970177  RH  048%=      5-min Rain = 0
KPD4 190321Z 15012KT 30/18 A2982 RMK A01 T02980177  RH  048%=      5-min Rain = 0
KPD4 190322Z 15014KT 30/18 A2982 RMK A01 T02980177  RH  048%=      5-min Rain = 0
KPD4 190323Z 15013KT 30/18 A2982 RMK A01 T02990177  RH  048%=      5-min Rain = 0
KPD4 190324Z 15013KT 30/18 A2982 RMK A01 T03000177  RH  048%=      5-min Rain = 0
KPD4 190325Z 15013KT 30/18 A2982 RMK A01 T03000177  RH  048%=      5-min Rain = 0
KPD4 190326Z 16015KT 30/18 A2982 RMK A01 T03000177  RH  048%=      5-min Rain = 0
KPD4 190327Z 15013KT 30/18 A2982 RMK A01 T03020177  RH  047%=      5-min Rain = 0
KPD4 190328Z 15015KT 30/18 A2982 RMK A01 T03020177  RH  047%=      5-min Rain = 0
KPD4 190329Z 15012KT 30/18 A2982 RMK A01 T03020177  RH  047%=      5-min Rain = 0
KPD4 190330Z 15012KT 30/18 A2982 RMK A01 T03020177  RH  047%=      5-min Rain = 0
KPD4 190331Z 15012KT 30/18 A2982 RMK A01 T03020177  RH  047%=      5-min Rain = 0
KPD4 190332Z 15014KT 30/18 A2982 RMK A01 T03010177  RH  047%=      5-min Rain = 0
KPD4 190333Z 16013KT 30/18 A2983 RMK A01 T03010177  RH  047%=      5-min Rain = 0
KPD4 190334Z 16013KT 30/18 A2983 RMK A01 T03010177  RH  047%=      5-min Rain = 0
KPD4 190335Z 16012KT 30/18 A2983 RMK A01 T03020177  RH  047%=      5-min Rain = 0
KPD4 190336Z 15012KT 30/18 A2983 RMK A01 T03010177  RH  047%=      5-min Rain = 0
KPD4 190337Z 15014KT 30/18 A2983 RMK A01 T03010177  RH  047%=      5-min Rain = 0
KPD4 190338Z 16012KT 30/18 A2983 RMK A01 T03010176  RH  047%=      5-min Rain = 0
KPD4 190339Z 16015KT 30/18 A2983 RMK A01 T03010176  RH  047%=      5-min Rain = 0
KPD4 190340Z 16013KT 30/18 A2983 RMK A01 T03010177  RH  047%=      5-min Rain = 0
KPD4 190341Z 16014KT 30/18 A2983 RMK A01 T03010177  RH  047%=      5-min Rain = 0
KPD4 190342Z 15016KT 30/18 A2983 RMK A01 T03010177  RH  047%=      5-min Rain = 0
KPD4 190343Z 16015KT 30/18 A2983 RMK A01 T03010176  RH  047%=      5-min Rain = 0
KPD4 190344Z 16013KT 30/18 A2983 RMK A01 T03020177  RH  047%=      5-min Rain = 0
KPD4 190345Z 16013KT 30/18 A2983 RMK A01 T03010177  RH  047%=      5-min Rain = 0
KPD4 190346Z 16015KT 30/18 A2983 RMK A01 T03010178  RH  048%=      5-min Rain = 0
KPD4 190347Z 16015KT 30/18 A2983 RMK A01 T03010177  RH  048%=      5-min Rain = 0
KPD4 190348Z 16015KT 30/18 A2983 RMK A01 T03010177  RH  048%=      5-min Rain = 0
KPD4 190349Z 16015KT 30/18 A2983 RMK A01 T03010177  RH  047%=      5-min Rain = 0
KPD4 190350Z 16013KT 30/18 A2983 RMK A01 T03000177  RH  048%=      5-min Rain = 0
KPD4 190351Z 16013KT 30/18 A2983 RMK A01 T03010178  RH  048%=      5-min Rain = 0
KPD4 190352Z 16013KT 30/18 A2983 RMK A01 T03000178  RH  048%=      5-min Rain = 0
KPD4 190353Z 16012KT 30/18 A2983 RMK A01 T02990177  RH  048%=      5-min Rain = 0
KPD4 190354Z 16013KT 30/18 A2983 RMK A01 T02990178  RH  048%=      5-min Rain = 0
KPD4 190355Z 16015KT 30/18 A2984 RMK A01 T02980177  RH  048%=      5-min Rain = 0
KPD4 190356Z 16013KT 30/18 A2984 RMK A01 T02990177  RH  048%=      5-min Rain = 0
KPD4 190357Z 16015KT 30/18 A2984 RMK A01 T02990177  RH  048%=      5-min Rain = 0
KPD4 190358Z 16012G18KT 30/18 A2984 RMK A01 T02990177  RH  048%=      5-min Rain = 0
KPD4 190359Z 16013KT 30/18 A2984 RMK A01 T02990177  RH  048%=      5-min Rain = 0
KPD4 190400Z 16012KT 30/18 A2984 RMK A01 T02990177  RH  048%=      5-min Rain = 0
KPD4 190401Z 16015G20KT 30/18 A2984 RMK A01 T02980176  RH  048%=      5-min Rain = 0
KPD4 190402Z 16016G21KT 30/17 A2984 RMK A01 T02990174  RH  047%=      5-min Rain = 0
KPD4 190403Z 16014KT 30/17 A2984 RMK A01 T03000174  RH  047%=      5-min Rain = 0
KPD4 190404Z 16013KT 30/17 A2984 RMK A01 T03000174  RH  047%=      5-min Rain = 0
KPD4 190405Z 16014KT 30/17 A2984 RMK A01 T03000174  RH  047%=      5-min Rain = 0
KPD4 190406Z 16013KT 30/17 A2984 RMK A01 T03000174  RH  047%=      5-min Rain = 0
KPD4 190407Z 16012KT 30/18 A2984 RMK A01 T02990175  RH  047%=      5-min Rain = 0
KPD4 190408Z 16012KT 30/18 A2984 RMK A01 T02990175  RH  047%=      5-min Rain = 0
KPD4 190409Z 16013KT 30/17 A2984 RMK A01 T02980174  RH  047%=      5-min Rain = 0
KPD4 190410Z 16014KT 30/17 A2984 RMK A01 T02980174  RH  047%=      5-min Rain = 0
KPD4 190411Z 16013KT 30/17 A2984 RMK A01 T02990174  RH  047%=      5-min Rain = 0
KPD4 190412Z 16014KT 30/17 A2984 RMK A01 T02980174  RH  047%=      5-min Rain = 0
KPD4 190413Z 16013KT 30/17 A2984 RMK A01 T02980174  RH  047%=      5-min Rain = 0
KPD4 190414Z 16016KT 30/17 A2984 RMK A01 T02980174  RH  047%=      5-min Rain = 0
KPD4 190415Z 16013KT 30/17 A2984 RMK A01 T02980174  RH  047%=      5-min Rain = 0
KPD4 190416Z 16013KT 30/17 A2984 RMK A01 T02980174  RH  047%=      5-min Rain = 0
KPD4 190417Z 16014KT 30/17 A2984 RMK A01 T02980173  RH  047%=      5-min Rain = 0
KPD4 190418Z 16014KT 30/17 A2984 RMK A01 T02980173  RH  047%=      5-min Rain = 0
KPD4 190419Z 16014KT 30/17 A2984 RMK A01 T02980173  RH  047%=      5-min Rain = 0
KPD4 190420Z 16013KT 30/17 A2984 RMK A01 T02980172  RH  047%=      5-min Rain = 0
KPD4 190421Z 16014KT 30/17 A2984 RMK A01 T02980172  RH  047%=      5-min Rain = 0
KPD4 190422Z 16014KT 30/17 A2984 RMK A01 T02980172  RH  047%=      5-min Rain = 0
KPD4 190423Z 16013KT 30/17 A2984 RMK A01 T02970172  RH  047%=      5-min Rain = 0
KPD4 190424Z 16014KT 30/17 A2984 RMK A01 T02970172  RH  047%=      5-min Rain = 0
KPD4 190425Z 16015G20KT 30/17 A2984 RMK A01 T02970171  RH  047%=      5-min Rain = 0
KPD4 190426Z 16012KT 30/17 A2984 RMK A01 T02980172  RH  047%=      5-min Rain = 0
KPD4 190427Z 16013KT 30/17 A2984 RMK A01 T02970172  RH  047%=      5-min Rain = 0
KPD4 190428Z 16013KT 30/17 A2984 RMK A01 T02960173  RH  047%=      5-min Rain = 0
KPD4 190429Z 16014KT 30/17 A2984 RMK A01 T02950172  RH  048%=      5-min Rain = 0
KPD4 190430Z 16015KT 30/17 A2984 RMK A01 T02950172  RH  047%=      5-min Rain = 0
KPD4 190431Z 16013KT 30/17 A2985 RMK A01 T02950172  RH  047%=      5-min Rain = 0
KPD4 190432Z 16014KT 30/17 A2985 RMK A01 T02950172  RH  047%=      5-min Rain = 0
KPD4 190433Z 16015KT 30/17 A2985 RMK A01 T02950172  RH  047%=      5-min Rain = 0
KPD4 190434Z 16013KT 30/17 A2985 RMK A01 T02950171  RH  047%=      5-min Rain = 0
KPD4 190435Z 16013KT 30/17 A2985 RMK A01 T02950172  RH  047%=      5-min Rain = 0
KPD4 190436Z 16014KT 30/17 A2985 RMK A01 T02950171  RH  047%=      5-min Rain = 0
KPD4 190437Z 16013KT 29/17 A2985 RMK A01 T02940171  RH  048%=      5-min Rain = 0
KPD4 190438Z 16015KT 29/17 A2985 RMK A01 T02940171  RH  048%=      5-min Rain = 0
KPD4 190439Z 16013KT 29/17 A2985 RMK A01 T02940171  RH  048%=      5-min Rain = 0
KPD4 190440Z 16014KT 29/17 A2985 RMK A01 T02940172  RH  048%=      5-min Rain = 0
KPD4 190441Z 16014KT 29/17 A2985 RMK A01 T02940172  RH  048%=      5-min Rain = 0
KPD4 190442Z 16013KT 29/17 A2985 RMK A01 T02940172  RH  048%=      5-min Rain = 0
KPD4 190443Z 16013KT 29/17 A2985 RMK A01 T02930172  RH  048%=      5-min Rain = 0
KPD4 190444Z 16015KT 29/17 A2985 RMK A01 T02920172  RH  048%=      5-min Rain = 0
KPD4 190445Z 16013KT 29/17 A2985 RMK A01 T02920171  RH  048%=      5-min Rain = 0
KPD4 190446Z 16014KT 29/17 A2985 RMK A01 T02920171  RH  048%=      5-min Rain = 0
KPD4 190447Z 16015KT 29/17 A2985 RMK A01 T02920172  RH  048%=      5-min Rain = 0
KPD4 190448Z 16015KT 29/17 A2985 RMK A01 T02920172  RH  048%=      5-min Rain = 0
KPD4 190449Z 16015KT 29/17 A2985 RMK A01 T02920172  RH  048%=      5-min Rain = 0
KPD4 190450Z 16013KT 29/17 A2985 RMK A01 T02920172  RH  048%=      5-min Rain = 0
KPD4 190451Z 16014KT 29/17 A2985 RMK A01 T02920172  RH  048%=      5-min Rain = 0
KPD4 190452Z 16013KT 29/17 A2985 RMK A01 T02920172  RH  049%=      5-min Rain = 0
KPD4 190453Z 16014KT 29/17 A2985 RMK A01 T02910172  RH  049%=      5-min Rain = 0
KPD4 190454Z 16013KT 29/17 A2985 RMK A01 T02910172  RH  049%=      5-min Rain = 0
KPD4 190455Z 16014KT 29/17 A2985 RMK A01 T02900172  RH  049%=      5-min Rain = 0
KPD4 190456Z 16014KT 29/17 A2985 RMK A01 T02900172  RH  049%=      5-min Rain = 0
KPD4 190457Z 16015KT 29/17 A2985 RMK A01 T02900172  RH  049%=      5-min Rain = 0
KPD4 190458Z 17014KT 29/17 A2985 RMK A01 T02900172  RH  049%=      5-min Rain = 0
KPD4 190459Z 17012KT 29/17 A2985 RMK A01 T02900172  RH  049%=      5-min Rain = 0

Page generated in 0.1349 seconds.